Observation data for Lake McClellan 2NW on 04/16/2021      Previous  Date  Next       Current Mesonet Observations  Soil Data  Daily Summary Page  Observations in Plain Language
KMC5 160500Z 10014KT 05/05 A2991 RMK A01 T00500048  RH  099%=      5-min Rain = 0
KMC5 160501Z 10012KT 05/05 A2991 RMK A01 T00500048  RH  099%=      5-min Rain = 0
KMC5 160502Z 10013KT 05/05 A2991 RMK A01 T00500048  RH  099%=      5-min Rain = 0
KMC5 160503Z 10014KT 05/05 A2991 RMK A01 T00500049  RH  099%=      5-min Rain = 0
KMC5 160504Z 10015KT 05/05 A2991 RMK A01 T00510049  RH  099%=      5-min Rain = 0
KMC5 160505Z 10014KT 05/05 A2991 RMK A01 T00510049  RH  099%=      5-min Rain = 0
KMC5 160506Z 10012KT 05/05 A2991 RMK A01 T00510049  RH  099%=      5-min Rain = 0
KMC5 160507Z 10011KT 05/05 A2991 RMK A01 T00500049  RH  099%=      5-min Rain = 0
KMC5 160508Z 10012KT 05/05 A2991 RMK A01 T00510049  RH  099%=      5-min Rain = 0
KMC5 160509Z 10013KT 05/05 A2991 RMK A01 T00500049  RH  099%=      5-min Rain = 0
KMC5 160510Z 10014KT 05/05 A2991 RMK A01 T00500049  RH  099%=      5-min Rain = 0
KMC5 160511Z 10014KT 05/05 A2991 RMK A01 T00500049  RH  099%=      5-min Rain = 0
KMC5 160512Z 10014KT 05/05 A2991 RMK A01 T00510049  RH  099%=      5-min Rain = 0
KMC5 160513Z 10013KT 05/05 A2991 RMK A01 T00510049  RH  099%=      5-min Rain = 0
KMC5 160514Z 10013KT 05/05 A2991 RMK A01 T00500048  RH  099%=      5-min Rain = 0
KMC5 160515Z 10013KT 05/05 A299 RMK A01 T00500049  RH  099%=      5-min Rain = 0
KMC5 160516Z 10013KT 05/05 A299 RMK A01 T00510049  RH  099%=      5-min Rain = 0
KMC5 160517Z 10013KT 05/05 A299 RMK A01 T00500048  RH  099%=      5-min Rain = 0
KMC5 160518Z 10014KT 05/05 A299 RMK A01 T00500049  RH  099%=      5-min Rain = 0
KMC5 160519Z 10014KT 05/05 A299 RMK A01 T00500049  RH  099%=      5-min Rain = 0
KMC5 160520Z 10013KT 05/05 A299 RMK A01 T00510049  RH  099%=      5-min Rain = 0
KMC5 160521Z 10013KT 05/05 A299 RMK A01 T00510049  RH  099%=      5-min Rain = 0
KMC5 160522Z 10012KT 05/05 A299 RMK A01 T00500049  RH  099%=      5-min Rain = 0
KMC5 160523Z 09012KT 05/05 A299 RMK A01 T00510049  RH  099%=      5-min Rain = 0
KMC5 160524Z 09012KT 05/05 A299 RMK A01 T00510049  RH  099%=      5-min Rain = 0
KMC5 160525Z 09013KT 05/05 A299 RMK A01 T00510049  RH  099%=      5-min Rain = 0
KMC5 160526Z 09013KT 05/05 A2991 RMK A01 T00510049  RH  099%=      5-min Rain = 0
KMC5 160527Z 10012KT 05/05 A2991 RMK A01 T00510049  RH  099%=      5-min Rain = 0
KMC5 160528Z 09012KT 05/05 A2991 RMK A01 T00510049  RH  099%=      5-min Rain = 0
KMC5 160529Z 09011KT 05/05 A2991 RMK A01 T00510049  RH  099%=      5-min Rain = 0
KMC5 160530Z 09012KT 05/05 A2991 RMK A01 T00510049  RH  099%=      5-min Rain = 0
KMC5 160531Z 10011KT 05/05 A2991 RMK A01 T00510049  RH  099%=      5-min Rain = 0
KMC5 160532Z 09012KT 05/05 A2991 RMK A01 T00510049  RH  099%=      5-min Rain = 0
KMC5 160533Z 09013KT 05/05 A299 RMK A01 T00510049  RH  099%=      5-min Rain = 0
KMC5 160534Z 10012KT 05/05 A299 RMK A01 T00510049  RH  099%=      5-min Rain = 0
KMC5 160535Z 10011KT 05/05 A299 RMK A01 T00520050  RH  099%=      5-min Rain = 0
KMC5 160536Z 09010KT 05/05 A299 RMK A01 T00510050  RH  099%=      5-min Rain = 0
KMC5 160537Z 09011KT 05/05 A299 RMK A01 T00520050  RH  099%=      5-min Rain = 0
KMC5 160538Z 09011KT 05/05 A299 RMK A01 T00510050  RH  099%=      5-min Rain = 0
KMC5 160539Z 09011KT 05/05 A299 RMK A01 T00510050  RH  099%=      5-min Rain = 0
KMC5 160540Z 09012KT 05/05 A299 RMK A01 T00510049  RH  099%=      5-min Rain = 0
KMC5 160541Z 09010KT 05/05 A299 RMK A01 T00510050  RH  099%=      5-min Rain = 0
KMC5 160542Z 10012KT 05/05 A299 RMK A01 T00510050  RH  099%=      5-min Rain = 0
KMC5 160543Z 09013KT 05/05 A299 RMK A01 T00510050  RH  099%=      5-min Rain = 0
KMC5 160544Z 10013KT 05/05 A299 RMK A01 T00510050  RH  099%=      5-min Rain = 0
KMC5 160545Z 09013KT 05/05 A299 RMK A01 T00520050  RH  099%=      5-min Rain = 0
KMC5 160546Z 09014KT 05/05 A299 RMK A01 T00510050  RH  099%=      5-min Rain = 0
KMC5 160547Z 09013KT 05/05 A299 RMK A01 T00520050  RH  099%=      5-min Rain = 0
KMC5 160548Z 09012KT 05/05 A299 RMK A01 T00510050  RH  099%=      5-min Rain = 0
KMC5 160549Z 10011KT 05/05 A299 RMK A01 T00510050  RH  099%=      5-min Rain = 0
KMC5 160550Z 10012KT 05/05 A299 RMK A01 T00520050  RH  099%=      5-min Rain = 0
KMC5 160551Z 10012KT 05/05 A299 RMK A01 T00510050  RH  099%=      5-min Rain = 0
KMC5 160552Z 09012KT 05/05 A299 RMK A01 T00510050  RH  099%=      5-min Rain = 0
KMC5 160553Z 09013KT 05/05 A299 RMK A01 T00520050  RH  099%=      5-min Rain = 0
KMC5 160554Z 09012KT 05/05 A299 RMK A01 T00510049  RH  099%=      5-min Rain = 0
KMC5 160555Z 09012KT 05/05 A299 RMK A01 T00510050  RH  099%=      5-min Rain = 0
KMC5 160556Z 09011KT 05/05 A299 RMK A01 T00520050  RH  099%=      5-min Rain = 0
KMC5 160557Z 10011KT 05/05 A299 RMK A01 T00520050  RH  099%=      5-min Rain = 0
KMC5 160558Z 10014KT 05/05 A299 RMK A01 T00520050  RH  099%=      5-min Rain = 0
KMC5 160559Z 09011KT 05/05 A299 RMK A01 T00520050  RH  099%=      5-min Rain = 0
KMC5 160600Z 09010KT 05/05 A299 RMK A01 T00520050  RH  099%=      5-min Rain = 0
KMC5 160601Z 09011KT 05/05 A299 RMK A01 T00520050  RH  099%=      5-min Rain = 0
KMC5 160602Z 10009KT 05/05 A299 RMK A01 T00520050  RH  099%=      5-min Rain = 0
KMC5 160603Z 09009KT 05/05 A299 RMK A01 T00520051  RH  099%=      5-min Rain = 0
KMC5 160604Z 09010KT 05/05 A299 RMK A01 T00520051  RH  099%=      5-min Rain = 0
KMC5 160605Z 09011KT 05/05 A299 RMK A01 T00520051  RH  099%=      5-min Rain = 0
KMC5 160606Z 09011KT 05/05 A299 RMK A01 T00520050  RH  099%=      5-min Rain = 0
KMC5 160607Z 10011KT 05/05 A299 RMK A01 T00520050  RH  099%=      5-min Rain = 0
KMC5 160608Z 09009KT 05/05 A299 RMK A01 T00520051  RH  099%=      5-min Rain = 0
KMC5 160609Z 09010KT 05/05 A299 RMK A01 T00520051  RH  099%=      5-min Rain = 0
KMC5 160610Z 09011KT 05/05 A299 RMK A01 T00520051  RH  099%=      5-min Rain = 0
KMC5 160611Z 08010KT 05/05 A299 RMK A01 T00520051  RH  099%=      5-min Rain = 0
KMC5 160612Z 09010KT 05/05 A299 RMK A01 T00520050  RH  099%=      5-min Rain = 0
KMC5 160613Z 10009KT 05/05 A299 RMK A01 T00530051  RH  099%=      5-min Rain = 0
KMC5 160614Z 09009KT 05/05 A299 RMK A01 T00530051  RH  099%=      5-min Rain = 0
KMC5 160615Z 09011KT 05/05 A2991 RMK A01 T00530051  RH  099%=      5-min Rain = 0
KMC5 160616Z 09009KT 05/05 A2991 RMK A01 T00530051  RH  099%=      5-min Rain = 0
KMC5 160617Z 09010KT 05/05 A2991 RMK A01 T00530051  RH  099%=      5-min Rain = 0
KMC5 160618Z 09009KT 05/05 A2991 RMK A01 T00530051  RH  099%=      5-min Rain = 0
KMC5 160619Z 09008KT 05/05 A2991 RMK A01 T00530052  RH  099%=      5-min Rain = 0
KMC5 160620Z 09007KT 05/05 A2991 RMK A01 T00530052  RH  099%=      5-min Rain = 0
KMC5 160621Z 09008KT 05/05 A2991 RMK A01 T00530052  RH  099%=      5-min Rain = 0
KMC5 160622Z 08009KT 05/05 A2991 RMK A01 T00530052  RH  099%=      5-min Rain = 0
KMC5 160623Z 08008KT 05/05 A2991 RMK A01 T00530052  RH  099%=      5-min Rain = 0
KMC5 160624Z 08008KT 05/05 A2991 RMK A01 T00530051  RH  099%=      5-min Rain = 0
KMC5 160625Z 08008KT 05/05 A2991 RMK A01 T00530052  RH  099%=      5-min Rain = 0
KMC5 160626Z 08008KT 05/05 A2991 RMK A01 T00530051  RH  099%=      5-min Rain = 0
KMC5 160627Z 08007KT 05/05 A2991 RMK A01 T00530051  RH  099%=      5-min Rain = 0
KMC5 160628Z 08007KT 05/05 A2991 RMK A01 T00530052  RH  099%=      5-min Rain = 0
KMC5 160629Z 08007KT 05/05 A2991 RMK A01 T00530051  RH  099%=      5-min Rain = 0
KMC5 160630Z 08006KT 05/05 A2991 RMK A01 T00540052  RH  099%=      5-min Rain = 0
KMC5 160631Z 08008KT 05/05 A2991 RMK A01 T00530051  RH  099%=      5-min Rain = 0
KMC5 160632Z 07007KT 05/05 A2992 RMK A01 T00530051  RH  099%=      5-min Rain = 0
KMC5 160633Z 08007KT 05/05 A2992 RMK A01 T00530051  RH  099%=      5-min Rain = 0
KMC5 160634Z 07006KT 05/05 A2992 RMK A01 T00530052  RH  099%=      5-min Rain = 0
KMC5 160635Z 07006KT 05/05 A2992 RMK A01 T00540052  RH  099%=      5-min Rain = 0
KMC5 160636Z 06006KT 05/05 A2992 RMK A01 T00540052  RH  099%=      5-min Rain = 0.01
KMC5 160637Z 06005KT 05/05 A2992 RMK A01 T00540052  RH  099%=      5-min Rain = 0
KMC5 160638Z 06005KT 05/05 A2992 RMK A01 T00540052  RH  099%=      5-min Rain = 0
KMC5 160639Z 07005KT 05/05 A2992 RMK A01 T00540052  RH  099%=      5-min Rain = 0
KMC5 160640Z 07006KT 05/05 A2992 RMK A01 T00540052  RH  099%=      5-min Rain = 0
KMC5 160641Z 08005KT 05/05 A2992 RMK A01 T00540053  RH  099%=      5-min Rain = 0
KMC5 160642Z 07005KT 05/05 A2992 RMK A01 T00540052  RH  099%=      5-min Rain = 0
KMC5 160643Z 07004KT 05/05 A2993 RMK A01 T00540052  RH  099%=      5-min Rain = 0
KMC5 160644Z 06006KT 05/05 A2993 RMK A01 T00540052  RH  099%=      5-min Rain = 0
KMC5 160645Z 06005KT 05/05 A2993 RMK A01 T00540052  RH  099%=      5-min Rain = 0
KMC5 160646Z 06005KT 05/05 A2993 RMK A01 T00540053  RH  099%=      5-min Rain = 0
KMC5 160647Z 07005KT 05/05 A2993 RMK A01 T00540053  RH  099%=      5-min Rain = 0
KMC5 160648Z 07005KT 05/05 A2993 RMK A01 T00540052  RH  099%=      5-min Rain = 0
KMC5 160649Z 07006KT 05/05 A2993 RMK A01 T00540052  RH  099%=      5-min Rain = 0
KMC5 160650Z 06004KT 05/05 A2993 RMK A01 T00540052  RH  099%=      5-min Rain = 0
KMC5 160651Z 06004KT 06/05 A2993 RMK A01 T00550053  RH  099%=      5-min Rain = 0
KMC5 160652Z 06004KT 06/05 A2993 RMK A01 T00550053  RH  099%=      5-min Rain = 0
KMC5 160653Z 06005KT 06/05 A2993 RMK A01 T00550053  RH  099%=      5-min Rain = 0
KMC5 160654Z 07007KT 06/05 A2993 RMK A01 T00550053  RH  099%=      5-min Rain = 0
KMC5 160655Z 07006KT 06/05 A2993 RMK A01 T00550053  RH  099%=      5-min Rain = 0
KMC5 160656Z 08004KT 06/05 A2993 RMK A01 T00550053  RH  099%=      5-min Rain = 0
KMC5 160657Z 08005KT 06/05 A2993 RMK A01 T00550053  RH  099%=      5-min Rain = 0
KMC5 160658Z 08006KT 06/05 A2993 RMK A01 T00550053  RH  099%=      5-min Rain = 0
KMC5 160659Z 07006KT 06/05 A2993 RMK A01 T00550053  RH  099%=      5-min Rain = 0
KMC5 160700Z 07005KT 06/05 A2993 RMK A01 T00550053  RH  099%=      5-min Rain = 0
KMC5 160701Z 06005KT 06/05 A2993 RMK A01 T00550053  RH  099%=      5-min Rain = 0
KMC5 160702Z 05005KT 06/05 A2993 RMK A01 T00550053  RH  099%=      5-min Rain = 0
KMC5 160703Z 04005KT 05/05 A2993 RMK A01 T00540053  RH  099%=      5-min Rain = 0
KMC5 160704Z 04004KT 06/05 A2993 RMK A01 T00550053  RH  099%=      5-min Rain = 0
KMC5 160705Z 03005KT 06/05 A2993 RMK A01 T00550053  RH  099%=      5-min Rain = 0
KMC5 160706Z 04006KT 06/05 A2993 RMK A01 T00550053  RH  099%=      5-min Rain = 0
KMC5 160707Z 04005KT 05/05 A2993 RMK A01 T00540053  RH  099%=      5-min Rain = 0
KMC5 160708Z 04004KT 06/05 A2993 RMK A01 T00550053  RH  099%=      5-min Rain = 0.01
KMC5 160709Z 03005KT 06/05 A2993 RMK A01 T00550053  RH  099%=      5-min Rain = 0
KMC5 160710Z 03006KT 06/05 A2993 RMK A01 T00550053  RH  099%=      5-min Rain = 0
KMC5 160711Z 04005KT 06/05 A2993 RMK A01 T00550053  RH  099%=      5-min Rain = 0
KMC5 160712Z 03005KT 06/05 A2994 RMK A01 T00550053  RH  099%=      5-min Rain = 0
KMC5 160713Z 04005KT 06/05 A2994 RMK A01 T00550053  RH  099%=      5-min Rain = 0
KMC5 160714Z 04004KT 05/05 A2994 RMK A01 T00540053  RH  099%=      5-min Rain = 0
KMC5 160715Z 01003KT 06/05 A2994 RMK A01 T00550053  RH  099%=      5-min Rain = 0
KMC5 160716Z 01005KT 06/05 A2994 RMK A01 T00550053  RH  099%=      5-min Rain = 0
KMC5 160717Z 00004KT 06/05 A2994 RMK A01 T00550054  RH  099%=      5-min Rain = 0
KMC5 160718Z 00006KT 06/05 A2994 RMK A01 T00550054  RH  099%=      5-min Rain = 0
KMC5 160719Z 01005KT 06/05 A2994 RMK A01 T00550054  RH  099%=      5-min Rain = 0
KMC5 160720Z 00005KT 06/05 A2995 RMK A01 T00550053  RH  099%=      5-min Rain = 0
KMC5 160721Z 00005KT 06/05 A2995 RMK A01 T00550053  RH  099%=      5-min Rain = 0
KMC5 160722Z 35005KT 06/05 A2995 RMK A01 T00550053  RH  099%=      5-min Rain = 0
KMC5 160723Z 36006KT 06/05 A2995 RMK A01 T00550053  RH  099%=      5-min Rain = 0
KMC5 160724Z 36005KT 06/05 A2995 RMK A01 T00550053  RH  099%=      5-min Rain = 0
KMC5 160725Z 35006KT 06/05 A2995 RMK A01 T00550053  RH  099%=      5-min Rain = 0
KMC5 160726Z 35005KT 06/05 A2995 RMK A01 T00550054  RH  099%=      5-min Rain = 0.01
KMC5 160727Z 35005KT 06/05 A2995 RMK A01 T00550054  RH  099%=      5-min Rain = 0
KMC5 160728Z 35006KT 06/05 A2995 RMK A01 T00560054  RH  099%=      5-min Rain = 0
KMC5 160729Z 35007KT 06/05 A2995 RMK A01 T00560054  RH  099%=      5-min Rain = 0
KMC5 160730Z 36008KT 06/05 A2995 RMK A01 T00550054  RH  099%=      5-min Rain = 0
KMC5 160731Z 35007KT 06/05 A2995 RMK A01 T00550053  RH  099%=      5-min Rain = 0
KMC5 160732Z 35007KT 06/05 A2995 RMK A01 T00550054  RH  099%=      5-min Rain = 0
KMC5 160733Z 34008KT 06/05 A2995 RMK A01 T00550053  RH  099%=      5-min Rain = 0
KMC5 160734Z 35006KT 06/05 A2996 RMK A01 T00550053  RH  099%=      5-min Rain = 0
KMC5 160735Z 35006KT 06/05 A2995 RMK A01 T00550054  RH  099%=      5-min Rain = 0
KMC5 160736Z 36006KT 06/05 A2995 RMK A01 T00560054  RH  099%=      5-min Rain = 0
KMC5 160737Z 00005KT 06/05 A2995 RMK A01 T00550054  RH  099%=      5-min Rain = 0.01
KMC5 160738Z 01006KT 06/05 A2994 RMK A01 T00550053  RH  099%=      5-min Rain = 0
KMC5 160739Z 01006KT 06/05 A2994 RMK A01 T00550053  RH  099%=      5-min Rain = 0
KMC5 160740Z 02007KT 06/05 A2994 RMK A01 T00550053  RH  099%=      5-min Rain = 0
KMC5 160741Z 01006KT 05/05 A2994 RMK A01 T00540053  RH  099%=      5-min Rain = 0
KMC5 160742Z 01005KT 05/05 A2994 RMK A01 T00540053  RH  099%=      5-min Rain = 0
KMC5 160743Z 01005KT 05/05 A2994 RMK A01 T00540052  RH  099%=      5-min Rain = 0
KMC5 160744Z 00006KT 05/05 A2994 RMK A01 T00540052  RH  099%=      5-min Rain = 0
KMC5 160745Z 00006KT 05/05 A2994 RMK A01 T00540052  RH  099%=      5-min Rain = 0
KMC5 160746Z 00006KT 05/05 A2995 RMK A01 T00540052  RH  099%=      5-min Rain = 0
KMC5 160747Z 36006KT 05/05 A2995 RMK A01 T00540053  RH  099%=      5-min Rain = 0
KMC5 160748Z 36006KT 06/05 A2995 RMK A01 T00550053  RH  099%=      5-min Rain = 0
KMC5 160749Z 36006KT 06/05 A2995 RMK A01 T00550053  RH  099%=      5-min Rain = 0
KMC5 160750Z 35006KT 06/05 A2995 RMK A01 T00550053  RH  099%=      5-min Rain = 0
KMC5 160751Z 35008KT 06/05 A2995 RMK A01 T00550053  RH  099%=      5-min Rain = 0
KMC5 160752Z 36007KT 06/05 A2995 RMK A01 T00550053  RH  099%=      5-min Rain = 0
KMC5 160753Z 36008KT 05/05 A2995 RMK A01 T00540052  RH  099%=      5-min Rain = 0.01
KMC5 160754Z 36008KT 05/05 A2994 RMK A01 T00540053  RH  099%=      5-min Rain = 0
KMC5 160755Z 36008KT 05/05 A2994 RMK A01 T00540052  RH  099%=      5-min Rain = 0
KMC5 160756Z 36009KT 05/05 A2994 RMK A01 T00540053  RH  099%=      5-min Rain = 0
KMC5 160757Z 36008KT 05/05 A2994 RMK A01 T00540052  RH  099%=      5-min Rain = 0
KMC5 160758Z 00009KT 05/05 A2994 RMK A01 T00530052  RH  099%=      5-min Rain = 0
KMC5 160759Z 36009KT 05/05 A2994 RMK A01 T00530052  RH  099%=      5-min Rain = 0
KMC5 160800Z 00007KT 05/05 A2994 RMK A01 T00530052  RH  099%=      5-min Rain = 0
KMC5 160801Z 00008KT 05/05 A2994 RMK A01 T00530052  RH  099%=      5-min Rain = 0
KMC5 160802Z 36008KT 05/05 A2994 RMK A01 T00530052  RH  099%=      5-min Rain = 0
KMC5 160803Z 00008KT 05/05 A2994 RMK A01 T00530052  RH  099%=      5-min Rain = 0
KMC5 160804Z 36009KT 05/05 A2994 RMK A01 T00530052  RH  099%=      5-min Rain = 0
KMC5 160805Z 36009KT 05/05 A2994 RMK A01 T00530051  RH  099%=      5-min Rain = 0
KMC5 160806Z 35009KT 05/05 A2994 RMK A01 T00530051  RH  099%=      5-min Rain = 0
KMC5 160807Z 35009KT 05/05 A2994 RMK A01 T00530051  RH  099%=      5-min Rain = 0
KMC5 160808Z 35010KT 05/05 A2994 RMK A01 T00530051  RH  099%=      5-min Rain = 0
KMC5 160809Z 35010KT 05/05 A2994 RMK A01 T00520051  RH  099%=      5-min Rain = 0
KMC5 160810Z 35008KT 05/05 A2994 RMK A01 T00520050  RH  099%=      5-min Rain = 0
KMC5 160811Z 36009KT 05/05 A2994 RMK A01 T00520050  RH  099%=      5-min Rain = 0
KMC5 160812Z 35009KT 05/05 A2994 RMK A01 T00520050  RH  099%=      5-min Rain = 0
KMC5 160813Z 36010KT 05/05 A2994 RMK A01 T00510049  RH  099%=      5-min Rain = 0
KMC5 160814Z 35009KT 05/05 A2994 RMK A01 T00510049  RH  099%=      5-min Rain = 0
KMC5 160815Z 36008KT 05/05 A2994 RMK A01 T00510049  RH  099%=      5-min Rain = 0
KMC5 160816Z 36008KT 05/05 A2994 RMK A01 T00510049  RH  099%=      5-min Rain = 0
KMC5 160817Z 00008KT 05/05 A2994 RMK A01 T00510049  RH  099%=      5-min Rain = 0
KMC5 160818Z 00009KT 05/05 A2994 RMK A01 T00510049  RH  099%=      5-min Rain = 0
KMC5 160819Z 36008KT 05/05 A2994 RMK A01 T00510049  RH  099%=      5-min Rain = 0
KMC5 160820Z 00007KT 05/05 A2994 RMK A01 T00510049  RH  099%=      5-min Rain = 0
KMC5 160821Z 36007KT 05/05 A2994 RMK A01 T00510049  RH  099%=      5-min Rain = 0
KMC5 160822Z 00008KT 05/05 A2994 RMK A01 T00510049  RH  099%=      5-min Rain = 0
KMC5 160823Z 00008KT 05/05 A2994 RMK A01 T00510049  RH  099%=      5-min Rain = 0
KMC5 160824Z 01008KT 05/05 A2993 RMK A01 T00510049  RH  099%=      5-min Rain = 0
KMC5 160825Z 01008KT 05/05 A2993 RMK A01 T00510049  RH  099%=      5-min Rain = 0
KMC5 160826Z 01007KT 05/05 A2993 RMK A01 T00500049  RH  099%=      5-min Rain = 0
KMC5 160827Z 01008KT 05/05 A2993 RMK A01 T00500049  RH  099%=      5-min Rain = 0
KMC5 160828Z 01008KT 05/05 A2993 RMK A01 T00500049  RH  099%=      5-min Rain = 0
KMC5 160829Z 01007KT 05/05 A2993 RMK A01 T00500048  RH  099%=      5-min Rain = 0
KMC5 160830Z 01007KT 05/05 A2993 RMK A01 T00500048  RH  099%=      5-min Rain = 0
KMC5 160831Z 01008KT 05/05 A2993 RMK A01 T00500048  RH  099%=      5-min Rain = 0
KMC5 160832Z 01008KT 05/05 A2993 RMK A01 T00500048  RH  099%=      5-min Rain = 0
KMC5 160833Z 00008KT 05/05 A2993 RMK A01 T00500048  RH  099%=      5-min Rain = 0
KMC5 160834Z 01007KT 05/05 A2993 RMK A01 T00500049  RH  099%=      5-min Rain = 0
KMC5 160835Z 00007KT 05/05 A2993 RMK A01 T00500048  RH  099%=      5-min Rain = 0
KMC5 160836Z 00009KT 05/05 A2993 RMK A01 T00500049  RH  099%=      5-min Rain = 0
KMC5 160837Z 00009KT 05/05 A2993 RMK A01 T00500049  RH  099%=      5-min Rain = 0
KMC5 160838Z 00009KT 05/05 A2993 RMK A01 T00500049  RH  099%=      5-min Rain = 0
KMC5 160839Z 00010KT 05/05 A2993 RMK A01 T00500048  RH  099%=      5-min Rain = 0
KMC5 160840Z 00009KT 05/05 A2993 RMK A01 T00500048  RH  099%=      5-min Rain = 0
KMC5 160841Z 00010KT 05/05 A2993 RMK A01 T00500049  RH  099%=      5-min Rain = 0
KMC5 160842Z 01010KT 05/05 A2993 RMK A01 T00500048  RH  099%=      5-min Rain = 0
KMC5 160843Z 00010KT 05/05 A2993 RMK A01 T00500048  RH  099%=      5-min Rain = 0
KMC5 160844Z 00009KT 05/05 A2993 RMK A01 T00500049  RH  099%=      5-min Rain = 0
KMC5 160845Z 00009KT 05/05 A2993 RMK A01 T00500048  RH  099%=      5-min Rain = 0
KMC5 160846Z 00009KT 05/05 A2993 RMK A01 T00500049  RH  099%=      5-min Rain = 0
KMC5 160847Z 00008KT 05/05 A2993 RMK A01 T00500048  RH  099%=      5-min Rain = 0
KMC5 160848Z 01008KT 05/05 A2993 RMK A01 T00500048  RH  099%=      5-min Rain = 0
KMC5 160849Z 01008KT 05/05 A2993 RMK A01 T00500048  RH  099%=      5-min Rain = 0
KMC5 160850Z 01008KT 05/05 A2993 RMK A01 T00500048  RH  099%=      5-min Rain = 0
KMC5 160851Z 00008KT 05/05 A2993 RMK A01 T00500048  RH  099%=      5-min Rain = 0
KMC5 160852Z 01008KT 05/05 A2993 RMK A01 T00500048  RH  099%=      5-min Rain = 0
KMC5 160853Z 01007KT 05/05 A2993 RMK A01 T00500049  RH  099%=      5-min Rain = 0
KMC5 160854Z 01007KT 05/05 A2993 RMK A01 T00500048  RH  099%=      5-min Rain = 0
KMC5 160855Z 01006KT 05/05 A2993 RMK A01 T00500048  RH  099%=      5-min Rain = 0
KMC5 160856Z 01007KT 05/05 A2993 RMK A01 T00500048  RH  099%=      5-min Rain = 0
KMC5 160857Z 01007KT 05/05 A2993 RMK A01 T00500048  RH  099%=      5-min Rain = 0
KMC5 160858Z 01007KT 05/05 A2993 RMK A01 T00500048  RH  099%=      5-min Rain = 0
KMC5 160859Z 01007KT 05/05 A2993 RMK A01 T00500049  RH  099%=      5-min Rain = 0
KMC5 160900Z 01007KT 05/05 A2993 RMK A01 T00500049  RH  099%=      5-min Rain = 0
KMC5 160901Z 01007KT 05/05 A2993 RMK A01 T00500049  RH  099%=      5-min Rain = 0
KMC5 160902Z 01008KT 05/05 A2993 RMK A01 T00500049  RH  099%=      5-min Rain = 0
KMC5 160903Z 01008KT 05/05 A2993 RMK A01 T00510049  RH  099%=      5-min Rain = 0
KMC5 160904Z 01008KT 05/05 A2993 RMK A01 T00500049  RH  099%=      5-min Rain = 0
KMC5 160905Z 01008KT 05/05 A2993 RMK A01 T00500049  RH  099%=      5-min Rain = 0
KMC5 160906Z 01009KT 05/05 A2993 RMK A01 T00510049  RH  099%=      5-min Rain = 0
KMC5 160907Z 02009KT 05/05 A2993 RMK A01 T00510049  RH  099%=      5-min Rain = 0
KMC5 160908Z 02009KT 05/05 A2993 RMK A01 T00510049  RH  099%=      5-min Rain = 0
KMC5 160909Z 02009KT 05/05 A2993 RMK A01 T00510049  RH  099%=      5-min Rain = 0
KMC5 160910Z 02008KT 05/05 A2993 RMK A01 T00500049  RH  099%=      5-min Rain = 0
KMC5 160911Z 02008KT 05/05 A2993 RMK A01 T00510049  RH  099%=      5-min Rain = 0
KMC5 160912Z 02008KT 05/05 A2993 RMK A01 T00500049  RH  099%=      5-min Rain = 0
KMC5 160913Z 01008KT 05/05 A2993 RMK A01 T00510049  RH  099%=      5-min Rain = 0
KMC5 160914Z 01008KT 05/05 A2993 RMK A01 T00510050  RH  099%=      5-min Rain = 0
KMC5 160915Z 02007KT 05/05 A2993 RMK A01 T00510050  RH  099%=      5-min Rain = 0
KMC5 160916Z 02008KT 05/05 A2992 RMK A01 T00510050  RH  099%=      5-min Rain = 0
KMC5 160917Z 02007KT 05/05 A2992 RMK A01 T00510050  RH  099%=      5-min Rain = 0
KMC5 160918Z 02007KT 05/05 A2992 RMK A01 T00510050  RH  099%=      5-min Rain = 0
KMC5 160919Z 02009KT 05/05 A2993 RMK A01 T00520050  RH  099%=      5-min Rain = 0
KMC5 160920Z 02007KT 05/05 A2993 RMK A01 T00510050  RH  099%=      5-min Rain = 0
KMC5 160921Z 02007KT 05/05 A2992 RMK A01 T00510050  RH  099%=      5-min Rain = 0
KMC5 160922Z 02008KT 05/05 A2992 RMK A01 T00510050  RH  099%=      5-min Rain = 0
KMC5 160923Z 03009KT 05/05 A2992 RMK A01 T00520050  RH  099%=      5-min Rain = 0
KMC5 160924Z 03009KT 05/05 A2992 RMK A01 T00510049  RH  099%=      5-min Rain = 0
KMC5 160925Z 02008KT 05/05 A2992 RMK A01 T00510049  RH  099%=      5-min Rain = 0
KMC5 160926Z 02007KT 05/05 A2992 RMK A01 T00510049  RH  099%=      5-min Rain = 0
KMC5 160927Z 03007KT 05/05 A2992 RMK A01 T00510050  RH  099%=      5-min Rain = 0
KMC5 160928Z 03006KT 05/05 A2992 RMK A01 T00510050  RH  099%=      5-min Rain = 0
KMC5 160929Z 02006KT 05/05 A2992 RMK A01 T00510050  RH  099%=      5-min Rain = 0
KMC5 160930Z 03007KT 05/05 A2992 RMK A01 T00520050  RH  099%=      5-min Rain = 0
KMC5 160931Z 03007KT 05/05 A2992 RMK A01 T00510050  RH  099%=      5-min Rain = 0
KMC5 160932Z 04006KT 05/05 A2992 RMK A01 T00510050  RH  099%=      5-min Rain = 0
KMC5 160933Z 04007KT 05/05 A2991 RMK A01 T00520050  RH  099%=      5-min Rain = 0
KMC5 160934Z 04006KT 05/05 A2991 RMK A01 T00520050  RH  099%=      5-min Rain = 0
KMC5 160935Z 05007KT 05/05 A2991 RMK A01 T00520050  RH  099%=      5-min Rain = 0
KMC5 160936Z 05008KT 05/05 A2991 RMK A01 T00520050  RH  099%=      5-min Rain = 0
KMC5 160937Z 05007KT 05/05 A2991 RMK A01 T00520050  RH  099%=      5-min Rain = 0
KMC5 160938Z 05007KT 05/05 A2991 RMK A01 T00510050  RH  099%=      5-min Rain = 0
KMC5 160939Z 06007KT 05/05 A2991 RMK A01 T00510050  RH  099%=      5-min Rain = 0
KMC5 160940Z 06007KT 05/05 A299 RMK A01 T00510050  RH  099%=      5-min Rain = 0
KMC5 160941Z 06008KT 05/05 A299 RMK A01 T00510050  RH  099%=      5-min Rain = 0
KMC5 160942Z 06008KT 05/05 A299 RMK A01 T00520050  RH  099%=      5-min Rain = 0
KMC5 160943Z 07007KT 05/05 A2989 RMK A01 T00510049  RH  099%=      5-min Rain = 0
KMC5 160944Z 07007KT 05/05 A2989 RMK A01 T00510049  RH  099%=      5-min Rain = 0
KMC5 160945Z 07009KT 05/05 A2989 RMK A01 T00510049  RH  099%=      5-min Rain = 0
KMC5 160946Z 07008KT 05/05 A2989 RMK A01 T00510049  RH  099%=      5-min Rain = 0
KMC5 160947Z 07009KT 05/05 A2989 RMK A01 T00510049  RH  099%=      5-min Rain = 0
KMC5 160948Z 07008KT 05/05 A2989 RMK A01 T00510050  RH  099%=      5-min Rain = 0
KMC5 160949Z 07010KT 05/05 A2988 RMK A01 T00510050  RH  099%=      5-min Rain = 0
KMC5 160950Z 08009KT 05/05 A2988 RMK A01 T00510050  RH  099%=      5-min Rain = 0
KMC5 160951Z 08009KT 05/05 A2988 RMK A01 T00510050  RH  099%=      5-min Rain = 0
KMC5 160952Z 08010KT 05/05 A2988 RMK A01 T00510050  RH  099%=      5-min Rain = 0
KMC5 160953Z 08010KT 05/05 A2987 RMK A01 T00510050  RH  099%=      5-min Rain = 0
KMC5 160954Z 08011KT 05/05 A2987 RMK A01 T00510049  RH  099%=      5-min Rain = 0
KMC5 160955Z 08010KT 05/05 A2987 RMK A01 T00510049  RH  099%=      5-min Rain = 0
KMC5 160956Z 08011KT 05/05 A2988 RMK A01 T00510049  RH  099%=      5-min Rain = 0
KMC5 160957Z 07010KT 05/05 A2988 RMK A01 T00510049  RH  099%=      5-min Rain = 0
KMC5 160958Z 06009KT 05/05 A2988 RMK A01 T00500049  RH  099%=      5-min Rain = 0
KMC5 160959Z 06009KT 05/05 A2989 RMK A01 T00500049  RH  099%=      5-min Rain = 0
KMC5 161000Z 05009KT 05/05 A2989 RMK A01 T00500049  RH  099%=      5-min Rain = 0
KMC5 161001Z 06009KT 05/05 A2989 RMK A01 T00510049  RH  099%=      5-min Rain = 0
KMC5 161002Z 06009KT 05/05 A2989 RMK A01 T00500049  RH  099%=      5-min Rain = 0
KMC5 161003Z 06007KT 05/05 A2989 RMK A01 T00500048  RH  099%=      5-min Rain = 0
KMC5 161004Z 06008KT 05/05 A2989 RMK A01 T00500048  RH  099%=      5-min Rain = 0
KMC5 161005Z 06010KT 05/05 A2989 RMK A01 T00500048  RH  099%=      5-min Rain = 0
KMC5 161006Z 06009KT 05/05 A2989 RMK A01 T00500048  RH  099%=      5-min Rain = 0
KMC5 161007Z 06009KT 05/05 A2989 RMK A01 T00500048  RH  099%=      5-min Rain = 0
KMC5 161008Z 06008KT 05/05 A2989 RMK A01 T00490047  RH  099%=      5-min Rain = 0
KMC5 161009Z 07009KT 05/05 A2989 RMK A01 T00490047  RH  099%=      5-min Rain = 0
KMC5 161010Z 06008KT 05/05 A2989 RMK A01 T00480047  RH  099%=      5-min Rain = 0
KMC5 161011Z 06008KT 05/05 A2989 RMK A01 T00480047  RH  099%=      5-min Rain = 0
KMC5 161012Z 07007KT 05/05 A2989 RMK A01 T00480046  RH  099%=      5-min Rain = 0
KMC5 161013Z 06008KT 05/05 A2989 RMK A01 T00480046  RH  099%=      5-min Rain = 0
KMC5 161014Z 06008KT 05/05 A2989 RMK A01 T00480046  RH  099%=      5-min Rain = 0
KMC5 161015Z 05007KT 05/05 A2989 RMK A01 T00480046  RH  099%=      5-min Rain = 0
KMC5 161016Z 05008KT 05/05 A2989 RMK A01 T00480046  RH  099%=      5-min Rain = 0
KMC5 161017Z 05008KT 05/05 A2989 RMK A01 T00470046  RH  099%=      5-min Rain = 0
KMC5 161018Z 05008KT 05/05 A299 RMK A01 T00470045  RH  099%=      5-min Rain = 0
KMC5 161019Z 05008KT 05/05 A2989 RMK A01 T00470045  RH  099%=      5-min Rain = 0
KMC5 161020Z 05009KT 05/05 A2989 RMK A01 T00470045  RH  099%=      5-min Rain = 0
KMC5 161021Z 06008KT 05/05 A2989 RMK A01 T00470045  RH  099%=      5-min Rain = 0
KMC5 161022Z 05008KT 05/05 A2989 RMK A01 T00470045  RH  099%=      5-min Rain = 0
KMC5 161023Z 05009KT 05/05 A2989 RMK A01 T00470045  RH  099%=      5-min Rain = 0
KMC5 161024Z 05009KT 05/05 A2989 RMK A01 T00470045  RH  099%=      5-min Rain = 0
KMC5 161025Z 04008KT 05/05 A2989 RMK A01 T00470045  RH  099%=      5-min Rain = 0
KMC5 161026Z 04010KT 05/05 A2989 RMK A01 T00470045  RH  099%=      5-min Rain = 0
KMC5 161027Z 04010KT 05/05 A2989 RMK A01 T00460045  RH  099%=      5-min Rain = 0
KMC5 161028Z 04010KT 05/05 A299 RMK A01 T00470045  RH  099%=      5-min Rain = 0
KMC5 161029Z 04009KT 05/05 A299 RMK A01 T00460045  RH  099%=      5-min Rain = 0
KMC5 161030Z 03009KT 05/05 A299 RMK A01 T00460045  RH  099%=      5-min Rain = 0
KMC5 161031Z 03010KT 05/05 A299 RMK A01 T00470045  RH  099%=      5-min Rain = 0
KMC5 161032Z 04009KT 05/05 A299 RMK A01 T00470045  RH  099%=      5-min Rain = 0
KMC5 161033Z 04008KT 05/05 A299 RMK A01 T00470045  RH  099%=      5-min Rain = 0
KMC5 161034Z 03007KT 05/05 A299 RMK A01 T00470045  RH  099%=      5-min Rain = 0
KMC5 161035Z 03007KT 05/05 A299 RMK A01 T00470045  RH  099%=      5-min Rain = 0
KMC5 161036Z 02008KT 05/05 A299 RMK A01 T00470045  RH  099%=      5-min Rain = 0
KMC5 161037Z 02009KT 05/05 A299 RMK A01 T00470046  RH  099%=      5-min Rain = 0
KMC5 161038Z 02009KT 05/05 A299 RMK A01 T00470046  RH  099%=      5-min Rain = 0
KMC5 161039Z 04009KT 05/05 A299 RMK A01 T00470045  RH  099%=      5-min Rain = 0
KMC5 161040Z 04008KT 05/04 A299 RMK A01 T00460044  RH  099%=      5-min Rain = 0
KMC5 161041Z 04007KT 05/04 A299 RMK A01 T00460044  RH  099%=      5-min Rain = 0
KMC5 161042Z 04006KT 05/04 A299 RMK A01 T00460044  RH  099%=      5-min Rain = 0
KMC5 161043Z 03007KT 05/04 A2989 RMK A01 T00460044  RH  099%=      5-min Rain = 0
KMC5 161044Z 04006KT 05/04 A2989 RMK A01 T00460044  RH  099%=      5-min Rain = 0
KMC5 161045Z 07006KT 05/05 A2989 RMK A01 T00460045  RH  099%=      5-min Rain = 0
KMC5 161046Z 07007KT 05/05 A2988 RMK A01 T00470045  RH  099%=      5-min Rain = 0
KMC5 161047Z 06007KT 05/05 A2989 RMK A01 T00470045  RH  099%=      5-min Rain = 0
KMC5 161048Z 06007KT 05/05 A2989 RMK A01 T00470045  RH  099%=      5-min Rain = 0
KMC5 161049Z 05007KT 05/05 A2989 RMK A01 T00470045  RH  099%=      5-min Rain = 0
KMC5 161050Z 05006KT 05/04 A2989 RMK A01 T00460044  RH  099%=      5-min Rain = 0
KMC5 161051Z 05006KT 05/04 A2989 RMK A01 T00460044  RH  099%=      5-min Rain = 0
KMC5 161052Z 05005KT 05/04 A2989 RMK A01 T00460044  RH  099%=      5-min Rain = 0
KMC5 161053Z 05007KT 05/04 A2989 RMK A01 T00460044  RH  099%=      5-min Rain = 0
KMC5 161054Z 05006KT 05/05 A2989 RMK A01 T00460045  RH  099%=      5-min Rain = 0
KMC5 161055Z 05006KT 05/04 A2989 RMK A01 T00460044  RH  099%=      5-min Rain = 0
KMC5 161056Z 05007KT 05/04 A2989 RMK A01 T00460044  RH  099%=      5-min Rain = 0
KMC5 161057Z 04008KT 05/04 A2989 RMK A01 T00460044  RH  099%=      5-min Rain = 0
KMC5 161058Z 03008KT 05/04 A299 RMK A01 T00460044  RH  099%=      5-min Rain = 0
KMC5 161059Z 03008KT 05/04 A299 RMK A01 T00460044  RH  099%=      5-min Rain = 0
KMC5 161100Z 03009KT 05/04 A299 RMK A01 T00460044  RH  099%=      5-min Rain = 0
KMC5 161101Z 03008KT 05/04 A299 RMK A01 T00460044  RH  099%=      5-min Rain = 0
KMC5 161102Z 03008KT 05/05 A299 RMK A01 T00460045  RH  099%=      5-min Rain = 0
KMC5 161103Z 03007KT 05/05 A299 RMK A01 T00460045  RH  099%=      5-min Rain = 0
KMC5 161104Z 03007KT 05/05 A299 RMK A01 T00470045  RH  099%=      5-min Rain = 0
KMC5 161105Z 04007KT 05/04 A299 RMK A01 T00460044  RH  099%=      5-min Rain = 0
KMC5 161106Z 05007KT 05/04 A299 RMK A01 T00450043  RH  099%=      5-min Rain = 0
KMC5 161107Z 04008KT 05/04 A299 RMK A01 T00450043  RH  099%=      5-min Rain = 0
KMC5 161108Z 04007KT 05/04 A299 RMK A01 T00450043  RH  099%=      5-min Rain = 0
KMC5 161109Z 03007KT 04/04 A299 RMK A01 T00440042  RH  099%=      5-min Rain = 0
KMC5 161110Z 03008KT 04/04 A299 RMK A01 T00440043  RH  099%=      5-min Rain = 0
KMC5 161111Z 04008KT 04/04 A299 RMK A01 T00440042  RH  099%=      5-min Rain = 0
KMC5 161112Z 04007KT 04/04 A299 RMK A01 T00440043  RH  099%=      5-min Rain = 0
KMC5 161113Z 05007KT 04/04 A299 RMK A01 T00440042  RH  099%=      5-min Rain = 0
KMC5 161114Z 04007KT 04/04 A299 RMK A01 T00440042  RH  099%=      5-min Rain = 0
KMC5 161115Z 04007KT 04/04 A299 RMK A01 T00440042  RH  099%=      5-min Rain = 0
KMC5 161116Z 04007KT 04/04 A299 RMK A01 T00440042  RH  099%=      5-min Rain = 0
KMC5 161117Z 03008KT 04/04 A299 RMK A01 T00440042  RH  099%=      5-min Rain = 0
KMC5 161118Z 05007KT 04/04 A299 RMK A01 T00440042  RH  099%=      5-min Rain = 0
KMC5 161119Z 05008KT 04/04 A299 RMK A01 T00440042  RH  099%=      5-min Rain = 0
KMC5 161120Z 05008KT 04/04 A299 RMK A01 T00430042  RH  099%=      5-min Rain = 0
KMC5 161121Z 04008KT 04/04 A299 RMK A01 T00430041  RH  099%=      5-min Rain = 0
KMC5 161122Z 04008KT 04/04 A299 RMK A01 T00440042  RH  099%=      5-min Rain = 0
KMC5 161123Z 04007KT 04/04 A299 RMK A01 T00440042  RH  099%=      5-min Rain = 0
KMC5 161124Z 05007KT 04/04 A299 RMK A01 T00440042  RH  099%=      5-min Rain = 0
KMC5 161125Z 05007KT 04/04 A299 RMK A01 T00430042  RH  099%=      5-min Rain = 0
KMC5 161126Z 05007KT 04/04 A299 RMK A01 T00430042  RH  099%=      5-min Rain = 0
KMC5 161127Z 04008KT 04/04 A299 RMK A01 T00430042  RH  099%=      5-min Rain = 0
KMC5 161128Z 04008KT 04/04 A299 RMK A01 T00430042  RH  099%=      5-min Rain = 0
KMC5 161129Z 04008KT 04/04 A299 RMK A01 T00430041  RH  099%=      5-min Rain = 0
KMC5 161130Z 04008KT 04/04 A299 RMK A01 T00430041  RH  099%=      5-min Rain = 0
KMC5 161131Z 05008KT 04/04 A299 RMK A01 T00430041  RH  099%=      5-min Rain = 0
KMC5 161132Z 06008KT 04/04 A299 RMK A01 T00430041  RH  099%=      5-min Rain = 0
KMC5 161133Z 06008KT 04/04 A299 RMK A01 T00420041  RH  099%=      5-min Rain = 0
KMC5 161134Z 05008KT 04/04 A299 RMK A01 T00420041  RH  099%=      5-min Rain = 0
KMC5 161135Z 05008KT 04/04 A299 RMK A01 T00420041  RH  099%=      5-min Rain = 0
KMC5 161136Z 05008KT 04/04 A299 RMK A01 T00420041  RH  099%=      5-min Rain = 0
KMC5 161137Z 04007KT 04/04 A299 RMK A01 T00420040  RH  099%=      5-min Rain = 0
KMC5 161138Z 04006KT 04/04 A299 RMK A01 T00420040  RH  099%=      5-min Rain = 0
KMC5 161139Z 02006KT 04/04 A299 RMK A01 T00420040  RH  099%=      5-min Rain = 0
KMC5 161140Z 02007KT 04/04 A299 RMK A01 T00420040  RH  099%=      5-min Rain = 0
KMC5 161141Z 02007KT 04/04 A299 RMK A01 T00420040  RH  099%=      5-min Rain = 0
KMC5 161142Z 03006KT 04/04 A2991 RMK A01 T00420040  RH  099%=      5-min Rain = 0
KMC5 161143Z 04006KT 04/04 A2991 RMK A01 T00420040  RH  099%=      5-min Rain = 0
KMC5 161144Z 04005KT 04/04 A2991 RMK A01 T00410040  RH  099%=      5-min Rain = 0
KMC5 161145Z 04007KT 04/04 A2991 RMK A01 T00420040  RH  099%=      5-min Rain = 0
KMC5 161146Z 04007KT 04/04 A2991 RMK A01 T00420040  RH  099%=      5-min Rain = 0
KMC5 161147Z 01008KT 04/04 A2991 RMK A01 T00420040  RH  099%=      5-min Rain = 0
KMC5 161148Z 01008KT 04/04 A2991 RMK A01 T00420040  RH  099%=      5-min Rain = 0
KMC5 161149Z 02007KT 04/04 A2991 RMK A01 T00420040  RH  099%=      5-min Rain = 0
KMC5 161150Z 03006KT 04/04 A2991 RMK A01 T00410040  RH  099%=      5-min Rain = 0
KMC5 161151Z 02007KT 04/04 A2991 RMK A01 T00410040  RH  099%=      5-min Rain = 0
KMC5 161152Z 02006KT 04/04 A2991 RMK A01 T00410040  RH  099%=      5-min Rain = 0
KMC5 161153Z 01006KT 04/04 A2991 RMK A01 T00420040  RH  099%=      5-min Rain = 0
KMC5 161154Z 02005KT 04/04 A2991 RMK A01 T00420040  RH  099%=      5-min Rain = 0
KMC5 161155Z 02006KT 04/04 A2991 RMK A01 T00420040  RH  099%=      5-min Rain = 0
KMC5 161156Z 02005KT 04/04 A2991 RMK A01 T00420040  RH  099%=      5-min Rain = 0
KMC5 161157Z 02005KT 04/04 A2991 RMK A01 T00420040  RH  099%=      5-min Rain = 0
KMC5 161158Z 02005KT 04/04 A2991 RMK A01 T00420041  RH  099%=      5-min Rain = 0
KMC5 161159Z 01007KT 04/04 A299 RMK A01 T00420041  RH  099%=      5-min Rain = 0
KMC5 161200Z 02005KT 04/04 A299 RMK A01 T00420040  RH  099%=      5-min Rain = 0
KMC5 161201Z 02005KT 04/04 A2991 RMK A01 T00410039  RH  099%=      5-min Rain = 0
KMC5 161202Z 02006KT 04/04 A2991 RMK A01 T00400039  RH  099%=      5-min Rain = 0
KMC5 161203Z 01007KT 04/04 A2991 RMK A01 T00410040  RH  099%=      5-min Rain = 0
KMC5 161204Z 01006KT 04/04 A2991 RMK A01 T00420040  RH  099%=      5-min Rain = 0
KMC5 161205Z 02005KT 04/04 A2991 RMK A01 T00410040  RH  099%=      5-min Rain = 0
KMC5 161206Z 00006KT 04/04 A2991 RMK A01 T00410039  RH  099%=      5-min Rain = 0
KMC5 161207Z 02006KT 04/04 A2991 RMK A01 T00410039  RH  099%=      5-min Rain = 0
KMC5 161208Z 03005KT 04/04 A2991 RMK A01 T00410039  RH  099%=      5-min Rain = 0
KMC5 161209Z 01006KT 04/04 A2991 RMK A01 T00420040  RH  099%=      5-min Rain = 0
KMC5 161210Z 00006KT 04/04 A2991 RMK A01 T00420040  RH  099%=      5-min Rain = 0
KMC5 161211Z 00008KT 04/04 A2991 RMK A01 T00420041  RH  099%=      5-min Rain = 0
KMC5 161212Z 00008KT 04/04 A2991 RMK A01 T00420040  RH  099%=      5-min Rain = 0
KMC5 161213Z 00007KT 04/04 A2991 RMK A01 T00410039  RH  099%=      5-min Rain = 0
KMC5 161214Z 02008KT 04/04 A2991 RMK A01 T00400039  RH  099%=      5-min Rain = 0
KMC5 161215Z 02008KT 04/04 A2991 RMK A01 T00410039  RH  099%=      5-min Rain = 0
KMC5 161216Z 02007KT 04/04 A2991 RMK A01 T00400039  RH  099%=      5-min Rain = 0
KMC5 161217Z 02008KT 04/04 A2991 RMK A01 T00410039  RH  099%=      5-min Rain = 0
KMC5 161218Z 02007KT 04/04 A2991 RMK A01 T00410039  RH  099%=      5-min Rain = 0
KMC5 161219Z 03007KT 04/04 A2991 RMK A01 T00410039  RH  099%=      5-min Rain = 0
KMC5 161220Z 03007KT 04/04 A2991 RMK A01 T00400039  RH  099%=      5-min Rain = 0
KMC5 161221Z 02006KT 04/04 A2991 RMK A01 T00400039  RH  099%=      5-min Rain = 0
KMC5 161222Z 03006KT 04/04 A2991 RMK A01 T00410039  RH  099%=      5-min Rain = 0
KMC5 161223Z 02008KT 04/04 A2991 RMK A01 T00410040  RH  099%=      5-min Rain = 0
KMC5 161224Z 01009KT 04/04 A2991 RMK A01 T00420040  RH  099%=      5-min Rain = 0
KMC5 161225Z 02008KT 04/04 A2991 RMK A01 T00410040  RH  099%=      5-min Rain = 0
KMC5 161226Z 02008KT 04/04 A2991 RMK A01 T00410039  RH  099%=      5-min Rain = 0
KMC5 161227Z 02006KT 04/04 A2991 RMK A01 T00410039  RH  099%=      5-min Rain = 0
KMC5 161228Z 02007KT 04/04 A2991 RMK A01 T00410039  RH  099%=      5-min Rain = 0
KMC5 161229Z 03006KT 04/04 A2991 RMK A01 T00410039  RH  099%=      5-min Rain = 0
KMC5 161230Z 03007KT 04/04 A2991 RMK A01 T00410039  RH  099%=      5-min Rain = 0
KMC5 161231Z 03007KT 04/04 A2992 RMK A01 T00410039  RH  099%=      5-min Rain = 0
KMC5 161232Z 03007KT 04/04 A2992 RMK A01 T00410039  RH  099%=      5-min Rain = 0
KMC5 161233Z 03008KT 04/04 A2992 RMK A01 T00410039  RH  099%=      5-min Rain = 0
KMC5 161234Z 03007KT 04/04 A2992 RMK A01 T00410039  RH  099%=      5-min Rain = 0
KMC5 161235Z 03007KT 04/04 A2992 RMK A01 T00410040  RH  099%=      5-min Rain = 0
KMC5 161236Z 02008KT 04/04 A2992 RMK A01 T00420040  RH  099%=      5-min Rain = 0
KMC5 161237Z 02007KT 04/04 A2992 RMK A01 T00420040  RH  099%=      5-min Rain = 0
KMC5 161238Z 02007KT 04/04 A2992 RMK A01 T00420040  RH  099%=      5-min Rain = 0
KMC5 161239Z 02007KT 04/04 A2992 RMK A01 T00420040  RH  099%=      5-min Rain = 0
KMC5 161240Z 02006KT 04/04 A2992 RMK A01 T00420041  RH  099%=      5-min Rain = 0
KMC5 161241Z 03008KT 04/04 A2992 RMK A01 T00430041  RH  099%=      5-min Rain = 0
KMC5 161242Z 02006KT 04/04 A2992 RMK A01 T00430041  RH  099%=      5-min Rain = 0
KMC5 161243Z 01008KT 04/04 A2992 RMK A01 T00430041  RH  099%=      5-min Rain = 0
KMC5 161244Z 00008KT 04/04 A2992 RMK A01 T00430041  RH  099%=      5-min Rain = 0
KMC5 161245Z 01009KT 04/04 A2992 RMK A01 T00420041  RH  099%=      5-min Rain = 0
KMC5 161246Z 01009KT 04/04 A2992 RMK A01 T00410040  RH  099%=      5-min Rain = 0
KMC5 161247Z 02007KT 04/04 A2992 RMK A01 T00410039  RH  099%=      5-min Rain = 0
KMC5 161248Z 02007KT 04/04 A2992 RMK A01 T00410039  RH  099%=      5-min Rain = 0
KMC5 161249Z 01006KT 04/04 A2992 RMK A01 T00410039  RH  099%=      5-min Rain = 0
KMC5 161250Z 01005KT 04/04 A2992 RMK A01 T00400039  RH  099%=      5-min Rain = 0
KMC5 161251Z 01007KT 04/04 A2993 RMK A01 T00410039  RH  099%=      5-min Rain = 0
KMC5 161252Z 00006KT 04/04 A2993 RMK A01 T00410040  RH  099%=      5-min Rain = 0
KMC5 161253Z 36005KT 04/04 A2993 RMK A01 T00410040  RH  099%=      5-min Rain = 0
KMC5 161254Z 36006KT 04/04 A2993 RMK A01 T00420040  RH  099%=      5-min Rain = 0
KMC5 161255Z 35006KT 04/04 A2993 RMK A01 T00410040  RH  099%=      5-min Rain = 0
KMC5 161256Z 36006KT 04/04 A2993 RMK A01 T00410040  RH  099%=      5-min Rain = 0
KMC5 161257Z 35006KT 04/04 A2993 RMK A01 T00420040  RH  099%=      5-min Rain = 0
KMC5 161258Z 35006KT 04/04 A2993 RMK A01 T00420040  RH  099%=      5-min Rain = 0
KMC5 161259Z 36005KT 04/04 A2993 RMK A01 T00420041  RH  099%=      5-min Rain = 0
KMC5 161300Z 01005KT 04/04 A2993 RMK A01 T00420041  RH  099%=      5-min Rain = 0
KMC5 161301Z 02007KT 04/04 A2993 RMK A01 T00430041  RH  099%=      5-min Rain = 0
KMC5 161302Z 02007KT 04/04 A2993 RMK A01 T00430042  RH  099%=      5-min Rain = 0
KMC5 161303Z 01007KT 04/04 A2993 RMK A01 T00430042  RH  099%=      5-min Rain = 0
KMC5 161304Z 00007KT 04/04 A2993 RMK A01 T00430042  RH  099%=      5-min Rain = 0
KMC5 161305Z 01006KT 04/04 A2993 RMK A01 T00430041  RH  099%=      5-min Rain = 0
KMC5 161306Z 01006KT 04/04 A2993 RMK A01 T00430041  RH  099%=      5-min Rain = 0
KMC5 161307Z 00006KT 04/04 A2993 RMK A01 T00430041  RH  099%=      5-min Rain = 0
KMC5 161308Z 01006KT 04/04 A2993 RMK A01 T00420041  RH  099%=      5-min Rain = 0
KMC5 161309Z 01006KT 04/04 A2993 RMK A01 T00420041  RH  099%=      5-min Rain = 0
KMC5 161310Z 00008KT 04/04 A2993 RMK A01 T00420041  RH  099%=      5-min Rain = 0
KMC5 161311Z 00009KT 04/04 A2993 RMK A01 T00430041  RH  099%=      5-min Rain = 0
KMC5 161312Z 00010KT 04/04 A2993 RMK A01 T00430041  RH  099%=      5-min Rain = 0
KMC5 161313Z 01009KT 04/04 A2993 RMK A01 T00420041  RH  099%=      5-min Rain = 0
KMC5 161314Z 01008KT 04/04 A2993 RMK A01 T00420041  RH  099%=      5-min Rain = 0
KMC5 161315Z 00009KT 04/04 A2993 RMK A01 T00420041  RH  099%=      5-min Rain = 0
KMC5 161316Z 00010KT 04/04 A2993 RMK A01 T00420041  RH  099%=      5-min Rain = 0
KMC5 161317Z 01010KT 04/04 A2994 RMK A01 T00420041  RH  099%=      5-min Rain = 0
KMC5 161318Z 01010KT 04/04 A2994 RMK A01 T00420041  RH  099%=      5-min Rain = 0
KMC5 161319Z 01010KT 04/04 A2993 RMK A01 T00430041  RH  099%=      5-min Rain = 0
KMC5 161320Z 01010KT 04/04 A2994 RMK A01 T00420041  RH  099%=      5-min Rain = 0
KMC5 161321Z 01011KT 04/04 A2994 RMK A01 T00430041  RH  099%=      5-min Rain = 0
KMC5 161322Z 00011KT 04/04 A2994 RMK A01 T00430041  RH  099%=      5-min Rain = 0
KMC5 161323Z 00009KT 04/04 A2994 RMK A01 T00430042  RH  099%=      5-min Rain = 0
KMC5 161324Z 00009KT 04/04 A2994 RMK A01 T00440042  RH  099%=      5-min Rain = 0
KMC5 161325Z 01009KT 04/04 A2994 RMK A01 T00440043  RH  099%=      5-min Rain = 0
KMC5 161326Z 00010KT 04/04 A2994 RMK A01 T00440042  RH  099%=      5-min Rain = 0
KMC5 161327Z 01011KT 04/04 A2994 RMK A01 T00440043  RH  099%=      5-min Rain = 0
KMC5 161328Z 00010KT 04/04 A2994 RMK A01 T00440043  RH  099%=      5-min Rain = 0
KMC5 161329Z 00010KT 04/04 A2994 RMK A01 T00440043  RH  099%=      5-min Rain = 0
KMC5 161330Z 36011KT 04/04 A2994 RMK A01 T00440043  RH  099%=      5-min Rain = 0
KMC5 161331Z 35013KT 05/04 A2994 RMK A01 T00450043  RH  099%=      5-min Rain = 0
KMC5 161332Z 35011KT 05/04 A2994 RMK A01 T00450044  RH  099%=      5-min Rain = 0
KMC5 161333Z 36010KT 05/04 A2994 RMK A01 T00450043  RH  099%=      5-min Rain = 0
KMC5 161334Z 36011KT 05/04 A2994 RMK A01 T00450043  RH  099%=      5-min Rain = 0
KMC5 161335Z 00012KT 05/04 A2994 RMK A01 T00450043  RH  099%=      5-min Rain = 0
KMC5 161336Z 00011KT 04/04 A2994 RMK A01 T00440043  RH  099%=      5-min Rain = 0
KMC5 161337Z 00011KT 04/04 A2994 RMK A01 T00440043  RH  099%=      5-min Rain = 0
KMC5 161338Z 35011KT 04/04 A2994 RMK A01 T00440043  RH  099%=      5-min Rain = 0
KMC5 161339Z 35011KT 04/04 A2994 RMK A01 T00440043  RH  099%=      5-min Rain = 0
KMC5 161340Z 35013KT 05/04 A2994 RMK A01 T00450043  RH  099%=      5-min Rain = 0
KMC5 161341Z 35012KT 04/04 A2994 RMK A01 T00440043  RH  099%=      5-min Rain = 0
KMC5 161342Z 00010KT 04/04 A2994 RMK A01 T00440042  RH  099%=      5-min Rain = 0
KMC5 161343Z 00011KT 05/04 A2994 RMK A01 T00450043  RH  099%=      5-min Rain = 0
KMC5 161344Z 00012KT 05/04 A2994 RMK A01 T00450043  RH  099%=      5-min Rain = 0
KMC5 161345Z 00011KT 04/04 A2994 RMK A01 T00440043  RH  099%=      5-min Rain = 0
KMC5 161346Z 00011KT 04/04 A2994 RMK A01 T00440042  RH  099%=      5-min Rain = 0
KMC5 161347Z 36013KT 04/04 A2994 RMK A01 T00440042  RH  099%=      5-min Rain = 0
KMC5 161348Z 00012KT 04/04 A2994 RMK A01 T00440042  RH  099%=      5-min Rain = 0
KMC5 161349Z 36012KT 04/04 A2994 RMK A01 T00440042  RH  099%=      5-min Rain = 0
KMC5 161350Z 36011KT 04/04 A2994 RMK A01 T00440043  RH  099%=      5-min Rain = 0
KMC5 161351Z 36012KT 05/04 A2994 RMK A01 T00450043  RH  099%=      5-min Rain = 0
KMC5 161352Z 01011KT 05/04 A2994 RMK A01 T00450043  RH  099%=      5-min Rain = 0
KMC5 161353Z 01010KT 05/04 A2994 RMK A01 T00450043  RH  099%=      5-min Rain = 0
KMC5 161354Z 01010KT 05/04 A2994 RMK A01 T00450043  RH  099%=      5-min Rain = 0
KMC5 161355Z 01009KT 05/04 A2994 RMK A01 T00450043  RH  099%=      5-min Rain = 0
KMC5 161356Z 01009KT 05/04 A2994 RMK A01 T00450043  RH  099%=      5-min Rain = 0
KMC5 161357Z 01010KT 05/04 A2994 RMK A01 T00450044  RH  099%=      5-min Rain = 0
KMC5 161358Z 01011KT 05/04 A2994 RMK A01 T00450044  RH  099%=      5-min Rain = 0
KMC5 161359Z 00009KT 05/04 A2994 RMK A01 T00450043  RH  099%=      5-min Rain = 0
KMC5 161400Z 00011KT 05/04 A2994 RMK A01 T00460044  RH  099%=      5-min Rain = 0
KMC5 161401Z 00012KT 05/04 A2994 RMK A01 T00460044  RH  099%=      5-min Rain = 0
KMC5 161402Z 00010KT 05/04 A2994 RMK A01 T00460044  RH  099%=      5-min Rain = 0
KMC5 161403Z 36010KT 05/04 A2994 RMK A01 T00460044  RH  099%=      5-min Rain = 0
KMC5 161404Z 00009KT 05/04 A2995 RMK A01 T00460044  RH  099%=      5-min Rain = 0
KMC5 161405Z 35009KT 05/05 A2995 RMK A01 T00470045  RH  099%=      5-min Rain = 0
KMC5 161406Z 36013KT 05/05 A2995 RMK A01 T00480046  RH  099%=      5-min Rain = 0
KMC5 161407Z 35012KT 05/05 A2995 RMK A01 T00470045  RH  099%=      5-min Rain = 0
KMC5 161408Z 35011KT 05/05 A2995 RMK A01 T00470045  RH  099%=      5-min Rain = 0
KMC5 161409Z 35012KT 05/05 A2995 RMK A01 T00460045  RH  099%=      5-min Rain = 0
KMC5 161410Z 35012KT 05/04 A2995 RMK A01 T00460044  RH  099%=      5-min Rain = 0
KMC5 161411Z 35012KT 05/04 A2995 RMK A01 T00460044  RH  099%=      5-min Rain = 0
KMC5 161412Z 35009KT 05/05 A2995 RMK A01 T00470045  RH  099%=      5-min Rain = 0
KMC5 161413Z 34013KT 05/05 A2995 RMK A01 T00470046  RH  099%=      5-min Rain = 0
KMC5 161414Z 35012KT 05/05 A2995 RMK A01 T00470045  RH  099%=      5-min Rain = 0
KMC5 161415Z 34012KT 05/05 A2995 RMK A01 T00470045  RH  099%=      5-min Rain = 0
KMC5 161416Z 34014KT 05/05 A2995 RMK A01 T00470045  RH  099%=      5-min Rain = 0
KMC5 161417Z 35012KT 05/05 A2995 RMK A01 T00470045  RH  099%=      5-min Rain = 0
KMC5 161418Z 36013KT 05/05 A2995 RMK A01 T00470045  RH  099%=      5-min Rain = 0
KMC5 161419Z 35012KT 05/05 A2995 RMK A01 T00470046  RH  099%=      5-min Rain = 0
KMC5 161420Z 35012KT 05/05 A2995 RMK A01 T00470045  RH  099%=      5-min Rain = 0
KMC5 161421Z 35011KT 05/05 A2995 RMK A01 T00470045  RH  099%=      5-min Rain = 0
KMC5 161422Z 36011KT 05/05 A2995 RMK A01 T00470045  RH  099%=      5-min Rain = 0
KMC5 161423Z 00013KT 05/05 A2995 RMK A01 T00460045  RH  099%=      5-min Rain = 0
KMC5 161424Z 00012KT 05/05 A2995 RMK A01 T00460045  RH  099%=      5-min Rain = 0
KMC5 161425Z 36012KT 05/05 A2995 RMK A01 T00470045  RH  099%=      5-min Rain = 0
KMC5 161426Z 35012KT 05/05 A2995 RMK A01 T00470046  RH  099%=      5-min Rain = 0
KMC5 161427Z 35011KT 05/05 A2995 RMK A01 T00470045  RH  099%=      5-min Rain = 0
KMC5 161428Z 35012KT 05/05 A2995 RMK A01 T00470045  RH  099%=      5-min Rain = 0
KMC5 161429Z 36010KT 05/05 A2995 RMK A01 T00470045  RH  099%=      5-min Rain = 0
KMC5 161430Z 36009KT 05/05 A2995 RMK A01 T00480046  RH  099%=      5-min Rain = 0
KMC5 161431Z 00012KT 05/05 A2995 RMK A01 T00480047  RH  099%=      5-min Rain = 0
KMC5 161432Z 35012KT 05/05 A2995 RMK A01 T00480046  RH  099%=      5-min Rain = 0
KMC5 161433Z 36011KT 05/05 A2995 RMK A01 T00470046  RH  099%=      5-min Rain = 0
KMC5 161434Z 00010KT 05/05 A2995 RMK A01 T00470045  RH  099%=      5-min Rain = 0
KMC5 161435Z 36010KT 05/05 A2995 RMK A01 T00470045  RH  099%=      5-min Rain = 0
KMC5 161436Z 35010KT 05/05 A2996 RMK A01 T00480046  RH  099%=      5-min Rain = 0
KMC5 161437Z 35011KT 05/05 A2996 RMK A01 T00480046  RH  099%=      5-min Rain = 0
KMC5 161438Z 35011KT 05/05 A2996 RMK A01 T00490047  RH  099%=      5-min Rain = 0
KMC5 161439Z 35011KT 05/05 A2996 RMK A01 T00490047  RH  099%=      5-min Rain = 0
KMC5 161440Z 35012KT 05/05 A2996 RMK A01 T00490047  RH  099%=      5-min Rain = 0
KMC5 161441Z 35013KT 05/05 A2996 RMK A01 T00480046  RH  099%=      5-min Rain = 0
KMC5 161442Z 35014KT 05/05 A2996 RMK A01 T00480047  RH  099%=      5-min Rain = 0
KMC5 161443Z 36013KT 05/05 A2996 RMK A01 T00490047  RH  099%=      5-min Rain = 0
KMC5 161444Z 36014KT 05/05 A2996 RMK A01 T00490047  RH  099%=      5-min Rain = 0
KMC5 161445Z 36013KT 05/05 A2996 RMK A01 T00490048  RH  099%=      5-min Rain = 0
KMC5 161446Z 36013KT 05/05 A2996 RMK A01 T00490047  RH  099%=      5-min Rain = 0
KMC5 161447Z 36013KT 05/05 A2996 RMK A01 T00490047  RH  099%=      5-min Rain = 0
KMC5 161448Z 35014KT 05/05 A2996 RMK A01 T00480047  RH  099%=      5-min Rain = 0
KMC5 161449Z 36012KT 05/05 A2996 RMK A01 T00480047  RH  099%=      5-min Rain = 0
KMC5 161450Z 35014KT 05/05 A2996 RMK A01 T00490047  RH  099%=      5-min Rain = 0
KMC5 161451Z 35013KT 05/05 A2996 RMK A01 T00500048  RH  099%=      5-min Rain = 0
KMC5 161452Z 35014KT 05/05 A2996 RMK A01 T00500048  RH  099%=      5-min Rain = 0
KMC5 161453Z 35012KT 05/05 A2996 RMK A01 T00500048  RH  099%=      5-min Rain = 0
KMC5 161454Z 36016KT 05/05 A2996 RMK A01 T00500049  RH  099%=      5-min Rain = 0
KMC5 161455Z 35013KT 05/05 A2996 RMK A01 T00500048  RH  099%=      5-min Rain = 0
KMC5 161456Z 35013KT 05/05 A2996 RMK A01 T00500048  RH  099%=      5-min Rain = 0
KMC5 161457Z 35013KT 05/05 A2996 RMK A01 T00500048  RH  099%=      5-min Rain = 0
KMC5 161458Z 35013KT 05/05 A2996 RMK A01 T00500048  RH  099%=      5-min Rain = 0
KMC5 161459Z 35013KT 05/05 A2996 RMK A01 T00490048  RH  099%=      5-min Rain = 0
KMC5 161500Z 35012KT 05/05 A2996 RMK A01 T00490048  RH  099%=      5-min Rain = 0
KMC5 161501Z 35011KT 05/05 A2996 RMK A01 T00500048  RH  099%=      5-min Rain = 0
KMC5 161502Z 36013KT 05/05 A2996 RMK A01 T00500048  RH  099%=      5-min Rain = 0
KMC5 161503Z 35013KT 05/05 A2996 RMK A01 T00500049  RH  099%=      5-min Rain = 0
KMC5 161504Z 35011KT 05/05 A2997 RMK A01 T00500049  RH  099%=      5-min Rain = 0
KMC5 161505Z 35011KT 05/05 A2997 RMK A01 T00510050  RH  099%=      5-min Rain = 0
KMC5 161506Z 35013KT 05/05 A2997 RMK A01 T00510050  RH  099%=      5-min Rain = 0
KMC5 161507Z 34013KT 05/05 A2997 RMK A01 T00510049  RH  099%=      5-min Rain = 0
KMC5 161508Z 35013KT 05/05 A2997 RMK A01 T00510049  RH  099%=      5-min Rain = 0
KMC5 161509Z 34012KT 05/05 A2997 RMK A01 T00500049  RH  099%=      5-min Rain = 0
KMC5 161510Z 35015KT 05/05 A2997 RMK A01 T00510050  RH  099%=      5-min Rain = 0
KMC5 161511Z 35014KT 05/05 A2997 RMK A01 T00500048  RH  099%=      5-min Rain = 0
KMC5 161512Z 35014KT 05/05 A2997 RMK A01 T00490048  RH  099%=      5-min Rain = 0
KMC5 161513Z 35014KT 05/05 A2997 RMK A01 T00500048  RH  099%=      5-min Rain = 0
KMC5 161514Z 35013KT 05/05 A2997 RMK A01 T00500048  RH  099%=      5-min Rain = 0
KMC5 161515Z 35014KT 05/05 A2997 RMK A01 T00510049  RH  099%=      5-min Rain = 0
KMC5 161516Z 35015KT 05/05 A2997 RMK A01 T00500049  RH  099%=      5-min Rain = 0
KMC5 161517Z 35014KT 05/05 A2998 RMK A01 T00500048  RH  099%=      5-min Rain = 0
KMC5 161518Z 34012KT 05/05 A2998 RMK A01 T00510049  RH  099%=      5-min Rain = 0
KMC5 161519Z 35011KT 05/05 A2998 RMK A01 T00510050  RH  099%=      5-min Rain = 0
KMC5 161520Z 34013KT 05/05 A2998 RMK A01 T00520050  RH  099%=      5-min Rain = 0
KMC5 161521Z 35014KT 05/05 A2998 RMK A01 T00510049  RH  099%=      5-min Rain = 0
KMC5 161522Z 35014KT 05/05 A2998 RMK A01 T00510049  RH  099%=      5-min Rain = 0
KMC5 161523Z 35014KT 05/05 A2998 RMK A01 T00510049  RH  099%=      5-min Rain = 0
KMC5 161524Z 35014KT 05/05 A2998 RMK A01 T00510049  RH  099%=      5-min Rain = 0
KMC5 161525Z 35014KT 05/05 A2998 RMK A01 T00500048  RH  099%=      5-min Rain = 0
KMC5 161526Z 35014KT 05/05 A2998 RMK A01 T00510049  RH  099%=      5-min Rain = 0
KMC5 161527Z 35014KT 05/05 A2998 RMK A01 T00510049  RH  099%=      5-min Rain = 0
KMC5 161528Z 35012KT 05/05 A2998 RMK A01 T00500049  RH  099%=      5-min Rain = 0
KMC5 161529Z 35010KT 05/05 A2998 RMK A01 T00510049  RH  099%=      5-min Rain = 0
KMC5 161530Z 35012KT 05/05 A2998 RMK A01 T00520050  RH  099%=      5-min Rain = 0
KMC5 161531Z 35014KT 05/05 A2997 RMK A01 T00520050  RH  099%=      5-min Rain = 0
KMC5 161532Z 35012KT 05/05 A2997 RMK A01 T00510050  RH  099%=      5-min Rain = 0
KMC5 161533Z 35012KT 05/05 A2997 RMK A01 T00510050  RH  099%=      5-min Rain = 0
KMC5 161534Z 36010KT 05/05 A2997 RMK A01 T00510049  RH  099%=      5-min Rain = 0
KMC5 161535Z 36011KT 05/05 A2997 RMK A01 T00510050  RH  099%=      5-min Rain = 0
KMC5 161536Z 34010KT 05/05 A2997 RMK A01 T00530051  RH  099%=      5-min Rain = 0
KMC5 161537Z 35011KT 05/05 A2997 RMK A01 T00540052  RH  099%=      5-min Rain = 0
KMC5 161538Z 35012KT 05/05 A2997 RMK A01 T00530052  RH  099%=      5-min Rain = 0
KMC5 161539Z 35011KT 05/05 A2997 RMK A01 T00520051  RH  099%=      5-min Rain = 0
KMC5 161540Z 36012KT 05/05 A2997 RMK A01 T00540052  RH  099%=      5-min Rain = 0
KMC5 161541Z 36013KT 05/05 A2997 RMK A01 T00520050  RH  099%=      5-min Rain = 0
KMC5 161542Z 00012KT 05/05 A2997 RMK A01 T00520050  RH  099%=      5-min Rain = 0
KMC5 161543Z 36011KT 05/05 A2997 RMK A01 T00520050  RH  099%=      5-min Rain = 0
KMC5 161544Z 36011KT 05/05 A2997 RMK A01 T00530051  RH  099%=      5-min Rain = 0
KMC5 161545Z 35013KT 05/05 A2997 RMK A01 T00530051  RH  099%=      5-min Rain = 0
KMC5 161546Z 35012KT 05/05 A2997 RMK A01 T00520051  RH  099%=      5-min Rain = 0
KMC5 161547Z 36013KT 05/05 A2997 RMK A01 T00530051  RH  099%=      5-min Rain = 0
KMC5 161548Z 35011KT 05/05 A2997 RMK A01 T00540053  RH  099%=      5-min Rain = 0
KMC5 161549Z 35012KT 05/05 A2997 RMK A01 T00540053  RH  099%=      5-min Rain = 0
KMC5 161550Z 35012KT 05/05 A2998 RMK A01 T00540052  RH  099%=      5-min Rain = 0
KMC5 161551Z 35016KT 05/05 A2998 RMK A01 T00540052  RH  099%=      5-min Rain = 0
KMC5 161552Z 35015KT 05/05 A2998 RMK A01 T00520050  RH  099%=      5-min Rain = 0
KMC5 161553Z 34015KT 05/05 A2998 RMK A01 T00510050  RH  099%=      5-min Rain = 0
KMC5 161554Z 35014KT 05/05 A2998 RMK A01 T00520050  RH  099%=      5-min Rain = 0
KMC5 161555Z 34014KT 05/05 A2998 RMK A01 T00520051  RH  099%=      5-min Rain = 0
KMC5 161556Z 35013KT 05/05 A2998 RMK A01 T00530051  RH  099%=      5-min Rain = 0
KMC5 161557Z 34012KT 05/05 A2998 RMK A01 T00530051  RH  099%=      5-min Rain = 0
KMC5 161558Z 35014KT 05/05 A2998 RMK A01 T00530051  RH  099%=      5-min Rain = 0
KMC5 161559Z 35016KT 05/05 A2998 RMK A01 T00530051  RH  099%=      5-min Rain = 0
KMC5 161600Z 35015KT 05/05 A2998 RMK A01 T00520051  RH  099%=      5-min Rain = 0
KMC5 161601Z 35012KT 05/05 A2998 RMK A01 T00520050  RH  099%=      5-min Rain = 0
KMC5 161602Z 34014KT 05/05 A2998 RMK A01 T00520050  RH  099%=      5-min Rain = 0
KMC5 161603Z 34014KT 05/05 A2998 RMK A01 T00530051  RH  099%=      5-min Rain = 0
KMC5 161604Z 34013KT 05/05 A2998 RMK A01 T00530052  RH  099%=      5-min Rain = 0
KMC5 161605Z 34015KT 05/05 A2998 RMK A01 T00540052  RH  099%=      5-min Rain = 0
KMC5 161606Z 33016KT 05/05 A2998 RMK A01 T00540052  RH  099%=      5-min Rain = 0
KMC5 161607Z 33014KT 05/05 A2998 RMK A01 T00530051  RH  099%=      5-min Rain = 0
KMC5 161608Z 33014KT 05/05 A2998 RMK A01 T00540052  RH  099%=      5-min Rain = 0
KMC5 161609Z 34015KT 06/05 A2998 RMK A01 T00550053  RH  099%=      5-min Rain = 0
KMC5 161610Z 34014KT 06/05 A2998 RMK A01 T00550053  RH  099%=      5-min Rain = 0
KMC5 161611Z 34012KT 06/06 A2998 RMK A01 T00570055  RH  099%=      5-min Rain = 0
KMC5 161612Z 35013KT 06/06 A2998 RMK A01 T00590057  RH  099%=      5-min Rain = 0
KMC5 161613Z 35015KT 06/06 A2998 RMK A01 T00590057  RH  099%=      5-min Rain = 0
KMC5 161614Z 34015KT 06/06 A2998 RMK A01 T00600057  RH  098%=      5-min Rain = 0
KMC5 161615Z 34014KT 06/06 A2998 RMK A01 T00590056  RH  098%=      5-min Rain = 0
KMC5 161616Z 33017KT 06/06 A2998 RMK A01 T00600057  RH  098%=      5-min Rain = 0
KMC5 161617Z 35014KT 06/06 A2998 RMK A01 T00600056  RH  098%=      5-min Rain = 0
KMC5 161618Z 34017KT 06/06 A2998 RMK A01 T00610057  RH  098%=      5-min Rain = 0
KMC5 161619Z 34015KT 06/06 A2998 RMK A01 T00610057  RH  097%=      5-min Rain = 0
KMC5 161620Z 35014KT 06/06 A2998 RMK A01 T00620058  RH  097%=      5-min Rain = 0
KMC5 161621Z 34017KT 06/06 A2998 RMK A01 T00630058  RH  097%=      5-min Rain = 0
KMC5 161622Z 34016KT 06/06 A2998 RMK A01 T00630057  RH  096%=      5-min Rain = 0
KMC5 161623Z 35016KT 06/06 A2998 RMK A01 T00640058  RH  096%=      5-min Rain = 0
KMC5 161624Z 35017KT 06/06 A2998 RMK A01 T00640058  RH  096%=      5-min Rain = 0
KMC5 161625Z 35015KT 06/06 A2998 RMK A01 T00640057  RH  095%=      5-min Rain = 0
KMC5 161626Z 35018KT 07/06 A2998 RMK A01 T00650058  RH  095%=      5-min Rain = 0
KMC5 161627Z 35016KT 07/06 A2998 RMK A01 T00650056  RH  095%=      5-min Rain = 0
KMC5 161628Z 35016KT 07/06 A2998 RMK A01 T00660058  RH  095%=      5-min Rain = 0
KMC5 161629Z 34016KT 07/06 A2998 RMK A01 T00690060  RH  095%=      5-min Rain = 0
KMC5 161630Z 33016KT 07/06 A2998 RMK A01 T00710062  RH  094%=      5-min Rain = 0
KMC5 161631Z 34016KT 07/06 A2998 RMK A01 T00720060  RH  092%=      5-min Rain = 0
KMC5 161632Z 34018KT 07/06 A2998 RMK A01 T00730058  RH  090%=      5-min Rain = 0
KMC5 161633Z 33017KT 07/06 A2998 RMK A01 T00740058  RH  090%=      5-min Rain = 0
KMC5 161634Z 34016KT 08/06 A2998 RMK A01 T00750059  RH  089%=      5-min Rain = 0
KMC5 161635Z 35014G19KT 08/06 A2998 RMK A01 T00760060  RH  090%=      5-min Rain = 0
KMC5 161636Z 35016KT 08/06 A2998 RMK A01 T00770059  RH  088%=      5-min Rain = 0
KMC5 161637Z 34016KT 08/05 A2998 RMK A01 T00750054  RH  087%=      5-min Rain = 0
KMC5 161638Z 34019KT 07/06 A2998 RMK A01 T00740055  RH  088%=      5-min Rain = 0
KMC5 161639Z 34020G25KT 07/05 A2998 RMK A01 T00740054  RH  087%=      5-min Rain = 0
KMC5 161640Z 34020KT 07/05 A2998 RMK A01 T00740050  RH  085%=      5-min Rain = 0
KMC5 161641Z 33018KT 07/05 A2998 RMK A01 T00730051  RH  086%=      5-min Rain = 0
KMC5 161642Z 34016G21KT 07/05 A2998 RMK A01 T00740053  RH  087%=      5-min Rain = 0
KMC5 161643Z 33021KT 08/05 A2998 RMK A01 T00750052  RH  085%=      5-min Rain = 0
KMC5 161644Z 33020KT 07/05 A2998 RMK A01 T00740049  RH  084%=      5-min Rain = 0
KMC5 161645Z 33019KT 07/05 A2998 RMK A01 T00740050  RH  085%=      5-min Rain = 0
KMC5 161646Z 33017KT 07/05 A2998 RMK A01 T00740051  RH  085%=      5-min Rain = 0
KMC5 161647Z 33018KT 08/05 A2998 RMK A01 T00760054  RH  086%=      5-min Rain = 0
KMC5 161648Z 33019KT 08/05 A2998 RMK A01 T00770052  RH  085%=      5-min Rain = 0
KMC5 161649Z 34018KT 08/05 A2998 RMK A01 T00770053  RH  085%=      5-min Rain = 0
KMC5 161650Z 35019KT 08/05 A2998 RMK A01 T00770053  RH  085%=      5-min Rain = 0
KMC5 161651Z 34018KT 08/05 A2998 RMK A01 T00770049  RH  082%=      5-min Rain = 0
KMC5 161652Z 34021KT 08/05 A2998 RMK A01 T00760048  RH  083%=      5-min Rain = 0
KMC5 161653Z 34017G22KT 07/05 A2998 RMK A01 T00740049  RH  084%=      5-min Rain = 0
KMC5 161654Z 35021KT 07/05 A2998 RMK A01 T00740050  RH  084%=      5-min Rain = 0
KMC5 161655Z 34019KT 07/05 A2998 RMK A01 T00740047  RH  084%=      5-min Rain = 0
KMC5 161656Z 34016KT 07/05 A2998 RMK A01 T00740050  RH  085%=      5-min Rain = 0
KMC5 161657Z 35019KT 07/05 A2998 RMK A01 T00740049  RH  084%=      5-min Rain = 0
KMC5 161658Z 35017G22KT 07/05 A2998 RMK A01 T00730049  RH  085%=      5-min Rain = 0
KMC5 161659Z 34016KT 07/05 A2998 RMK A01 T00720050  RH  086%=      5-min Rain = 0
KMC5 161700Z 34017G22KT 07/05 A2998 RMK A01 T00720049  RH  085%=      5-min Rain = 0
KMC5 161701Z 33017KT 07/05 A2999 RMK A01 T00720048  RH  085%=      5-min Rain = 0
KMC5 161702Z 34017G23KT 07/05 A2999 RMK A01 T00720048  RH  085%=      5-min Rain = 0
KMC5 161703Z 34017KT 07/05 A2999 RMK A01 T00720048  RH  084%=      5-min Rain = 0
KMC5 161704Z 33020KT 07/05 A2999 RMK A01 T00720048  RH  085%=      5-min Rain = 0
KMC5 161705Z 33019KT 07/05 A2999 RMK A01 T00710046  RH  084%=      5-min Rain = 0
KMC5 161706Z 34017KT 07/05 A2999 RMK A01 T00700046  RH  084%=      5-min Rain = 0
KMC5 161707Z 35021KT 07/05 A2999 RMK A01 T00710045  RH  084%=      5-min Rain = 0
KMC5 161708Z 34019KT 07/04 A2999 RMK A01 T00710044  RH  083%=      5-min Rain = 0
KMC5 161709Z 34017KT 07/05 A2999 RMK A01 T00700045  RH  084%=      5-min Rain = 0
KMC5 161710Z 34019KT 07/05 A2999 RMK A01 T00710046  RH  085%=      5-min Rain = 0
KMC5 161711Z 34019KT 07/05 A2999 RMK A01 T00710046  RH  084%=      5-min Rain = 0
KMC5 161712Z 34017KT 07/05 A2999 RMK A01 T00720047  RH  084%=      5-min Rain = 0
KMC5 161713Z 35016KT 08/05 A2999 RMK A01 T00750051  RH  085%=      5-min Rain = 0
KMC5 161714Z 34015KT 08/05 A2999 RMK A01 T00760050  RH  084%=      5-min Rain = 0
KMC5 161715Z 34016G21KT 08/05 A2999 RMK A01 T00760050  RH  083%=      5-min Rain = 0
KMC5 161716Z 34016KT 08/05 A2999 RMK A01 T00760049  RH  083%=      5-min Rain = 0
KMC5 161717Z 33019KT 08/05 A2999 RMK A01 T00770049  RH  082%=      5-min Rain = 0
KMC5 161718Z 34018KT 08/05 A2999 RMK A01 T00770047  RH  082%=      5-min Rain = 0
KMC5 161719Z 34021KT 08/05 A2999 RMK A01 T00770046  RH  081%=      5-min Rain = 0
KMC5 161720Z 34022KT 08/04 A2999 RMK A01 T00760043  RH  080%=      5-min Rain = 0
KMC5 161721Z 35021KT 07/04 A2999 RMK A01 T00740043  RH  081%=      5-min Rain = 0
KMC5 161722Z 35020G25KT 07/04 A2999 RMK A01 T00740042  RH  081%=      5-min Rain = 0
KMC5 161723Z 35021KT 07/04 A2999 RMK A01 T00730042  RH  081%=      5-min Rain = 0
KMC5 161724Z 35019KT 07/04 A2999 RMK A01 T00730043  RH  082%=      5-min Rain = 0
KMC5 161725Z 35018KT 07/04 A2999 RMK A01 T00720043  RH  081%=      5-min Rain = 0
KMC5 161726Z 34019KT 08/05 A2999 RMK A01 T00750046  RH  082%=      5-min Rain = 0
KMC5 161727Z 34019KT 08/05 A2999 RMK A01 T00760045  RH  080%=      5-min Rain = 0
KMC5 161728Z 35017KT 08/04 A2999 RMK A01 T00770044  RH  079%=      5-min Rain = 0
KMC5 161729Z 34017G22KT 08/04 A2999 RMK A01 T00770044  RH  080%=      5-min Rain = 0
KMC5 161730Z 34022KT 08/04 A2999 RMK A01 T00760042  RH  079%=      5-min Rain = 0
KMC5 161731Z 34019KT 07/04 A2999 RMK A01 T00740040  RH  079%=      5-min Rain = 0
KMC5 161732Z 34020G25KT 07/04 A2999 RMK A01 T00740042  RH  081%=      5-min Rain = 0
KMC5 161733Z 34019G24KT 07/04 A2999 RMK A01 T00740042  RH  080%=      5-min Rain = 0
KMC5 161734Z 34022KT 07/04 A2999 RMK A01 T00740043  RH  081%=      5-min Rain = 0
KMC5 161735Z 34023KT 08/04 A2999 RMK A01 T00760040  RH  078%=      5-min Rain = 0
KMC5 161736Z 34020KT 08/04 A2999 RMK A01 T00750039  RH  078%=      5-min Rain = 0
KMC5 161737Z 35018KT 08/04 A2999 RMK A01 T00760042  RH  079%=      5-min Rain = 0
KMC5 161738Z 35018KT 08/04 A2999 RMK A01 T00770042  RH  079%=      5-min Rain = 0
KMC5 161739Z 34021KT 08/04 A2999 RMK A01 T00760041  RH  079%=      5-min Rain = 0
KMC5 161740Z 35021KT 07/04 A2999 RMK A01 T00740040  RH  079%=      5-min Rain = 0
KMC5 161741Z 34019KT 07/04 A2999 RMK A01 T00740042  RH  080%=      5-min Rain = 0
KMC5 161742Z 35018KT 08/04 A2999 RMK A01 T00760043  RH  080%=      5-min Rain = 0
KMC5 161743Z 35018KT 08/04 A2999 RMK A01 T00760040  RH  078%=      5-min Rain = 0
KMC5 161744Z 35015KT 08/04 A2999 RMK A01 T00770041  RH  078%=      5-min Rain = 0
KMC5 161745Z 35018G23KT 08/04 A2999 RMK A01 T00780044  RH  079%=      5-min Rain = 0
KMC5 161746Z 34021KT 08/04 A2999 RMK A01 T00790039  RH  076%=      5-min Rain = 0
KMC5 161747Z 34018KT 08/04 A2999 RMK A01 T00770039  RH  077%=      5-min Rain = 0
KMC5 161748Z 34016KT 08/04 A2999 RMK A01 T00770042  RH  079%=      5-min Rain = 0
KMC5 161749Z 33019KT 08/04 A2999 RMK A01 T00770040  RH  077%=      5-min Rain = 0
KMC5 161750Z 33019KT 08/04 A2999 RMK A01 T00770040  RH  077%=      5-min Rain = 0
KMC5 161751Z 33020KT 08/04 A2999 RMK A01 T00780041  RH  077%=      5-min Rain = 0
KMC5 161752Z 34020KT 08/04 A2999 RMK A01 T00790041  RH  077%=      5-min Rain = 0
KMC5 161753Z 34019KT 08/04 A2999 RMK A01 T00800040  RH  076%=      5-min Rain = 0
KMC5 161754Z 35021KT 08/04 A2999 RMK A01 T00810041  RH  075%=      5-min Rain = 0
KMC5 161755Z 34022KT 08/04 A2999 RMK A01 T00820040  RH  075%=      5-min Rain = 0
KMC5 161756Z 34022KT 08/04 A2999 RMK A01 T00810040  RH  075%=      5-min Rain = 0
KMC5 161757Z 34021G26KT 08/04 A2999 RMK A01 T00810041  RH  076%=      5-min Rain = 0
KMC5 161758Z 34025KT 08/04 A2999 RMK A01 T00800040  RH  075%=      5-min Rain = 0
KMC5 161759Z 34023KT 08/04 A2999 RMK A01 T00790039  RH  076%=      5-min Rain = 0
KMC5 161800Z 33021G26KT 08/04 A2999 RMK A01 T00800041  RH  076%=      5-min Rain = 0
KMC5 161801Z 33022KT 08/04 A2999 RMK A01 T00810041  RH  076%=      5-min Rain = 0
KMC5 161802Z 34023KT 08/04 A2999 RMK A01 T00800040  RH  076%=      5-min Rain = 0
KMC5 161803Z 34020KT 08/04 A2999 RMK A01 T00790040  RH  076%=      5-min Rain = 0
KMC5 161804Z 34019KT 08/04 A2999 RMK A01 T00780041  RH  077%=      5-min Rain = 0
KMC5 161805Z 34022KT 08/04 A2999 RMK A01 T00780040  RH  077%=      5-min Rain = 0
KMC5 161806Z 34024KT 08/04 A2999 RMK A01 T00790039  RH  076%=      5-min Rain = 0
KMC5 161807Z 34019KT 08/04 A2999 RMK A01 T00780038  RH  076%=      5-min Rain = 0
KMC5 161808Z 35022G27KT 08/04 A2999 RMK A01 T00790040  RH  076%=      5-min Rain = 0
KMC5 161809Z 35022KT 08/04 A2999 RMK A01 T00790039  RH  076%=      5-min Rain = 0
KMC5 161810Z 35021KT 08/04 A2999 RMK A01 T00780039  RH  076%=      5-min Rain = 0
KMC5 161811Z 35020G25KT 08/04 A2999 RMK A01 T00770040  RH  077%=      5-min Rain = 0
KMC5 161812Z 35023KT 08/04 A2999 RMK A01 T00760039  RH  077%=      5-min Rain = 0
KMC5 161813Z 34020KT 08/04 A2999 RMK A01 T00750039  RH  078%=      5-min Rain = 0
KMC5 161814Z 34023KT 08/04 A2999 RMK A01 T00750039  RH  078%=      5-min Rain = 0
KMC5 161815Z 34023KT 07/04 A2999 RMK A01 T00740036  RH  077%=      5-min Rain = 0
KMC5 161816Z 34021KT 07/04 A2999 RMK A01 T00740036  RH  077%=      5-min Rain = 0
KMC5 161817Z 33019G24KT 08/04 A2999 RMK A01 T00760038  RH  077%=      5-min Rain = 0
KMC5 161818Z 34022KT 08/04 A2999 RMK A01 T00780037  RH  076%=      5-min Rain = 0
KMC5 161819Z 34021KT 08/04 A2999 RMK A01 T00780037  RH  075%=      5-min Rain = 0
KMC5 161820Z 34023KT 08/04 A2999 RMK A01 T00800038  RH  075%=      5-min Rain = 0
KMC5 161821Z 33024KT 08/04 A2999 RMK A01 T00800037  RH  074%=      5-min Rain = 0
KMC5 161822Z 34021KT 08/04 A2999 RMK A01 T00800038  RH  075%=      5-min Rain = 0
KMC5 161823Z 33021KT 08/04 A2999 RMK A01 T00800039  RH  076%=      5-min Rain = 0
KMC5 161824Z 34017KT 08/04 A2999 RMK A01 T00800040  RH  076%=      5-min Rain = 0
KMC5 161825Z 34019KT 08/04 A2999 RMK A01 T00810041  RH  076%=      5-min Rain = 0
KMC5 161826Z 34019KT 08/04 A2999 RMK A01 T00810039  RH  075%=      5-min Rain = 0
KMC5 161827Z 34021KT 08/04 A2999 RMK A01 T00790037  RH  075%=      5-min Rain = 0
KMC5 161828Z 35018KT 08/04 A2999 RMK A01 T00770038  RH  076%=      5-min Rain = 0
KMC5 161829Z 34018G23KT 08/04 A2999 RMK A01 T00780039  RH  076%=      5-min Rain = 0
KMC5 161830Z 34018KT 08/04 A2999 RMK A01 T00780038  RH  076%=      5-min Rain = 0
KMC5 161831Z 35020KT 08/04 A2999 RMK A01 T00780037  RH  075%=      5-min Rain = 0
KMC5 161832Z 34019G24KT 08/04 A2999 RMK A01 T00780037  RH  075%=      5-min Rain = 0
KMC5 161833Z 34022KT 08/04 A2999 RMK A01 T00790037  RH  075%=      5-min Rain = 0
KMC5 161834Z 35018KT 08/04 A2999 RMK A01 T00790038  RH  075%=      5-min Rain = 0
KMC5 161835Z 35019KT 08/04 A2999 RMK A01 T00800039  RH  075%=      5-min Rain = 0
KMC5 161836Z 34020KT 08/04 A2999 RMK A01 T00800038  RH  075%=      5-min Rain = 0
KMC5 161837Z 34020KT 08/04 A2999 RMK A01 T00800039  RH  075%=      5-min Rain = 0
KMC5 161838Z 34020KT 08/04 A30 RMK A01 T00800038  RH  075%=      5-min Rain = 0
KMC5 161839Z 34022KT 08/04 A30 RMK A01 T00800036  RH  074%=      5-min Rain = 0
KMC5 161840Z 34019KT 08/04 A30 RMK A01 T00800038  RH  075%=      5-min Rain = 0
KMC5 161841Z 34020G25KT 08/04 A30 RMK A01 T00810038  RH  075%=      5-min Rain = 0
KMC5 161842Z 34020KT 08/04 A30 RMK A01 T00800037  RH  074%=      5-min Rain = 0
KMC5 161843Z 34022KT 08/04 A30 RMK A01 T00800037  RH  074%=      5-min Rain = 0
KMC5 161844Z 34022G27KT 08/04 A30 RMK A01 T00790037  RH  075%=      5-min Rain = 0
KMC5 161845Z 34022KT 08/04 A30 RMK A01 T00780037  RH  075%=      5-min Rain = 0
KMC5 161846Z 34020KT 08/04 A30 RMK A01 T00780037  RH  075%=      5-min Rain = 0
KMC5 161847Z 34022KT 08/04 A30 RMK A01 T00770036  RH  075%=      5-min Rain = 0
KMC5 161848Z 35019KT 08/03 A30 RMK A01 T00760032  RH  074%=      5-min Rain = 0
KMC5 161849Z 34019G24KT 08/03 A30 RMK A01 T00770034  RH  074%=      5-min Rain = 0
KMC5 161850Z 34021KT 08/04 A30 RMK A01 T00790035  RH  073%=      5-min Rain = 0
KMC5 161851Z 34020KT 08/03 A30 RMK A01 T00800033  RH  072%=      5-min Rain = 0
KMC5 161852Z 35017KT 08/03 A30 RMK A01 T00810034  RH  073%=      5-min Rain = 0
KMC5 161853Z 35017KT 08/04 A30 RMK A01 T00830035  RH  072%=      5-min Rain = 0
KMC5 161854Z 35017KT 08/04 A30 RMK A01 T00830035  RH  072%=      5-min Rain = 0
KMC5 161855Z 35018KT 09/04 A2999 RMK A01 T00850037  RH  072%=      5-min Rain = 0
KMC5 161856Z 35020KT 09/04 A2999 RMK A01 T00860036  RH  071%=      5-min Rain = 0
KMC5 161857Z 35018KT 09/04 A2999 RMK A01 T00860037  RH  071%=      5-min Rain = 0
KMC5 161858Z 34022KT 09/04 A2999 RMK A01 T00870036  RH  070%=      5-min Rain = 0
KMC5 161859Z 34020KT 09/04 A2999 RMK A01 T00870036  RH  070%=      5-min Rain = 0
KMC5 161900Z 34020G25KT 09/04 A2999 RMK A01 T00870037  RH  071%=      5-min Rain = 0
KMC5 161901Z 34024KT 09/04 A2999 RMK A01 T00860035  RH  070%=      5-min Rain = 0
KMC5 161902Z 34021KT 08/03 A2999 RMK A01 T00830034  RH  071%=      5-min Rain = 0
KMC5 161903Z 34021KT 08/04 A2999 RMK A01 T00820037  RH  073%=      5-min Rain = 0
KMC5 161904Z 35022KT 08/04 A2999 RMK A01 T00830037  RH  073%=      5-min Rain = 0
KMC5 161905Z 35021KT 08/04 A30 RMK A01 T00830036  RH  072%=      5-min Rain = 0
KMC5 161906Z 34021KT 08/04 A30 RMK A01 T00840037  RH  072%=      5-min Rain = 0
KMC5 161907Z 34020KT 09/04 A30 RMK A01 T00850038  RH  072%=      5-min Rain = 0
KMC5 161908Z 35018G23KT 09/04 A30 RMK A01 T00860036  RH  071%=      5-min Rain = 0
KMC5 161909Z 36020KT 09/04 A30 RMK A01 T00850037  RH  072%=      5-min Rain = 0
KMC5 161910Z 35019KT 08/04 A30 RMK A01 T00830036  RH  072%=      5-min Rain = 0
KMC5 161911Z 35022KT 08/03 A30 RMK A01 T00810034  RH  072%=      5-min Rain = 0
KMC5 161912Z 35022G28KT 08/03 A30 RMK A01 T00780034  RH  074%=      5-min Rain = 0
KMC5 161913Z 34025KT 08/04 A30 RMK A01 T00760035  RH  075%=      5-min Rain = 0
KMC5 161914Z 34025KT 07/04 A30 RMK A01 T00730035  RH  077%=      5-min Rain = 0
KMC5 161915Z 34025KT 07/04 A30 RMK A01 T00710035  RH  078%=      5-min Rain = 0
KMC5 161916Z 34022KT 07/04 A30 RMK A01 T00700036  RH  079%=      5-min Rain = 0
KMC5 161917Z 34022KT 07/04 A30 RMK A01 T00700038  RH  080%=      5-min Rain = 0
KMC5 161918Z 35021KT 07/04 A30 RMK A01 T00700037  RH  080%=      5-min Rain = 0
KMC5 161919Z 35020KT 07/04 A30 RMK A01 T00700037  RH  080%=      5-min Rain = 0
KMC5 161920Z 34022KT 07/04 A30 RMK A01 T00700037  RH  080%=      5-min Rain = 0
KMC5 161921Z 34024KT 07/04 A30 RMK A01 T00700036  RH  079%=      5-min Rain = 0
KMC5 161922Z 34021KT 07/04 A30 RMK A01 T00690036  RH  079%=      5-min Rain = 0
KMC5 161923Z 35024KT 07/04 A30 RMK A01 T00690036  RH  080%=      5-min Rain = 0
KMC5 161924Z 35020KT 07/04 A30 RMK A01 T00690036  RH  079%=      5-min Rain = 0
KMC5 161925Z 35020KT 07/04 A30 RMK A01 T00690037  RH  080%=      5-min Rain = 0
KMC5 161926Z 34020KT 07/04 A30 RMK A01 T00700037  RH  080%=      5-min Rain = 0
KMC5 161927Z 34019G25KT 07/04 A30 RMK A01 T00710038  RH  079%=      5-min Rain = 0
KMC5 161928Z 34021KT 07/04 A30 RMK A01 T00720039  RH  080%=      5-min Rain = 0
KMC5 161929Z 34024KT 07/04 A30 RMK A01 T00720038  RH  079%=      5-min Rain = 0
KMC5 161930Z 35024KT 07/04 A30 RMK A01 T00700036  RH  079%=      5-min Rain = 0
KMC5 161931Z 34019KT 07/04 A3001 RMK A01 T00700038  RH  080%=      5-min Rain = 0
KMC5 161932Z 34021KT 07/04 A3001 RMK A01 T00710039  RH  080%=      5-min Rain = 0
KMC5 161933Z 34019G24KT 07/04 A3001 RMK A01 T00740040  RH  079%=      5-min Rain = 0
KMC5 161934Z 34021KT 08/04 A3001 RMK A01 T00760041  RH  078%=      5-min Rain = 0
KMC5 161935Z 34021KT 08/04 A3001 RMK A01 T00780041  RH  077%=      5-min Rain = 0
KMC5 161936Z 34021KT 08/04 A30 RMK A01 T00800040  RH  076%=      5-min Rain = 0
KMC5 161937Z 34021G27KT 08/04 A30 RMK A01 T00810040  RH  075%=      5-min Rain = 0
KMC5 161938Z 35024KT 08/04 A30 RMK A01 T00820037  RH  074%=      5-min Rain = 0
KMC5 161939Z 34019KT 08/04 A30 RMK A01 T00800038  RH  075%=      5-min Rain = 0
KMC5 161940Z 33023KT 08/04 A30 RMK A01 T00800039  RH  076%=      5-min Rain = 0
KMC5 161941Z 33023KT 08/04 A30 RMK A01 T00780039  RH  076%=      5-min Rain = 0
KMC5 161942Z 34022KT 08/04 A30 RMK A01 T00770039  RH  077%=      5-min Rain = 0
KMC5 161943Z 35023KT 08/04 A30 RMK A01 T00780038  RH  076%=      5-min Rain = 0
KMC5 161944Z 34021G27KT 08/04 A30 RMK A01 T00800037  RH  075%=      5-min Rain = 0
KMC5 161945Z 35022KT 08/04 A30 RMK A01 T00830040  RH  074%=      5-min Rain = 0
KMC5 161946Z 34022KT 09/04 A30 RMK A01 T00860038  RH  071%=      5-min Rain = 0
KMC5 161947Z 35022KT 08/03 A3001 RMK A01 T00830033  RH  071%=      5-min Rain = 0
KMC5 161948Z 35022KT 08/03 A30 RMK A01 T00820034  RH  071%=      5-min Rain = 0
KMC5 161949Z 35023G29KT 08/03 A30 RMK A01 T00830032  RH  071%=      5-min Rain = 0
KMC5 161950Z 35022KT 08/03 A30 RMK A01 T00830029  RH  069%=      5-min Rain = 0
KMC5 161951Z 35022KT 08/03 A30 RMK A01 T00840030  RH  069%=      5-min Rain = 0
KMC5 161952Z 35020KT 09/03 A30 RMK A01 T00910034  RH  068%=      5-min Rain = 0
KMC5 161953Z 35017KT 10/04 A3001 RMK A01 T00960036  RH  066%=      5-min Rain = 0
KMC5 161954Z 36020G25KT 10/04 A30 RMK A01 T01040044  RH  066%=      5-min Rain = 0
KMC5 161955Z 35023KT 11/03 A30 RMK A01 T01080034  RH  060%=      5-min Rain = 0
KMC5 161956Z 36019G25KT 10/03 A30 RMK A01 T01020032  RH  062%=      5-min Rain = 0
KMC5 161957Z 35023KT 10/03 A30 RMK A01 T00980027  RH  062%=      5-min Rain = 0
KMC5 161958Z 35019KT 09/03 A3001 RMK A01 T00930027  RH  063%=      5-min Rain = 0
KMC5 161959Z 36020G27KT 09/03 A30 RMK A01 T00930026  RH  063%=      5-min Rain = 0
KMC5 162000Z 36023KT 09/02 A30 RMK A01 T00930023  RH  061%=      5-min Rain = 0
KMC5 162001Z 34023G28KT 09/02 A30 RMK A01 T00900023  RH  063%=      5-min Rain = 0
KMC5 162002Z 35023KT 09/03 A30 RMK A01 T00890026  RH  065%=      5-min Rain = 0
KMC5 162003Z 35022G27KT 09/03 A30 RMK A01 T00880026  RH  065%=      5-min Rain = 0
KMC5 162004Z 35022G27KT 09/03 A30 RMK A01 T00880028  RH  066%=      5-min Rain = 0
KMC5 162005Z 35023KT 09/03 A30 RMK A01 T00890025  RH  064%=      5-min Rain = 0
KMC5 162006Z 35024KT 09/03 A30 RMK A01 T00890026  RH  065%=      5-min Rain = 0
KMC5 162007Z 35024G29KT 09/03 A30 RMK A01 T00890028  RH  066%=      5-min Rain = 0
KMC5 162008Z 35026KT 09/03 A30 RMK A01 T00870027  RH  066%=      5-min Rain = 0
KMC5 162009Z 34026KT 09/03 A3001 RMK A01 T00860027  RH  066%=      5-min Rain = 0
KMC5 162010Z 35023KT 09/03 A3001 RMK A01 T00860026  RH  066%=      5-min Rain = 0
KMC5 162011Z 34024KT 09/03 A3001 RMK A01 T00870025  RH  065%=      5-min Rain = 0
KMC5 162012Z 34022KT 09/03 A3001 RMK A01 T00860025  RH  065%=      5-min Rain = 0
KMC5 162013Z 34022G28KT 09/03 A3001 RMK A01 T00860027  RH  066%=      5-min Rain = 0
KMC5 162014Z 35026KT 09/03 A3001 RMK A01 T00860026  RH  066%=      5-min Rain = 0
KMC5 162015Z 35022KT 08/03 A3001 RMK A01 T00840025  RH  066%=      5-min Rain = 0
KMC5 162016Z 35024KT 08/03 A3001 RMK A01 T00830027  RH  068%=      5-min Rain = 0
KMC5 162017Z 34023KT 08/03 A3001 RMK A01 T00830027  RH  068%=      5-min Rain = 0
KMC5 162018Z 34021KT 08/03 A3001 RMK A01 T00830029  RH  069%=      5-min Rain = 0
KMC5 162019Z 34019KT 08/03 A3001 RMK A01 T00830029  RH  069%=      5-min Rain = 0
KMC5 162020Z 34020KT 08/03 A3001 RMK A01 T00820028  RH  069%=      5-min Rain = 0
KMC5 162021Z 34023KT 08/03 A3001 RMK A01 T00830027  RH  068%=      5-min Rain = 0
KMC5 162022Z 35023KT 08/03 A3001 RMK A01 T00840025  RH  067%=      5-min Rain = 0
KMC5 162023Z 34022G29KT 08/03 A3001 RMK A01 T00820026  RH  067%=      5-min Rain = 0
KMC5 162024Z 34024KT 08/03 A3001 RMK A01 T00820025  RH  067%=      5-min Rain = 0
KMC5 162025Z 34024KT 08/02 A3001 RMK A01 T00800024  RH  068%=      5-min Rain = 0
KMC5 162026Z 34023KT 08/02 A3001 RMK A01 T00790023  RH  068%=      5-min Rain = 0
KMC5 162027Z 34024KT 08/02 A3001 RMK A01 T00780024  RH  069%=      5-min Rain = 0
KMC5 162028Z 35026KT 08/02 A3001 RMK A01 T00790023  RH  068%=      5-min Rain = 0
KMC5 162029Z 34025KT 08/02 A3001 RMK A01 T00790024  RH  068%=      5-min Rain = 0
KMC5 162030Z 34025KT 08/02 A3001 RMK A01 T00800024  RH  068%=      5-min Rain = 0
KMC5 162031Z 34024KT 08/03 A3001 RMK A01 T00790025  RH  068%=      5-min Rain = 0
KMC5 162032Z 34022KT 08/02 A3001 RMK A01 T00800024  RH  068%=      5-min Rain = 0
KMC5 162033Z 34026KT 08/02 A3001 RMK A01 T00800023  RH  067%=      5-min Rain = 0
KMC5 162034Z 34025KT 08/02 A3001 RMK A01 T00800020  RH  066%=      5-min Rain = 0
KMC5 162035Z 34023KT 08/02 A3001 RMK A01 T00800020  RH  066%=      5-min Rain = 0
KMC5 162036Z 34025KT 08/02 A3001 RMK A01 T00820021  RH  065%=      5-min Rain = 0
KMC5 162037Z 35024KT 08/02 A3001 RMK A01 T00830020  RH  064%=      5-min Rain = 0
KMC5 162038Z 35025KT 08/02 A3001 RMK A01 T00840018  RH  063%=      5-min Rain = 0
KMC5 162039Z 35025KT 08/02 A3001 RMK A01 T00840019  RH  064%=      5-min Rain = 0
KMC5 162040Z 35023G28KT 08/02 A3001 RMK A01 T00840019  RH  064%=      5-min Rain = 0
KMC5 162041Z 34022KT 08/02 A3001 RMK A01 T00840021  RH  065%=      5-min Rain = 0
KMC5 162042Z 35023G28KT 08/02 A3001 RMK A01 T00840021  RH  064%=      5-min Rain = 0
KMC5 162043Z 35025KT 09/02 A3001 RMK A01 T00850021  RH  064%=      5-min Rain = 0
KMC5 162044Z 35025KT 08/02 A3001 RMK A01 T00830020  RH  064%=      5-min Rain = 0
KMC5 162045Z 35021G26KT 08/02 A3001 RMK A01 T00820020  RH  065%=      5-min Rain = 0
KMC5 162046Z 35024KT 08/02 A3001 RMK A01 T00820021  RH  065%=      5-min Rain = 0
KMC5 162047Z 35027KT 08/02 A3001 RMK A01 T00810017  RH  064%=      5-min Rain = 0
KMC5 162048Z 35026KT 08/02 A3001 RMK A01 T00790015  RH  064%=      5-min Rain = 0
KMC5 162049Z 35026KT 08/02 A3001 RMK A01 T00780016  RH  065%=      5-min Rain = 0
KMC5 162050Z 35023KT 08/02 A3001 RMK A01 T00780017  RH  065%=      5-min Rain = 0
KMC5 162051Z 35021KT 08/02 A3001 RMK A01 T00790020  RH  066%=      5-min Rain = 0
KMC5 162052Z 35023G28KT 08/02 A3001 RMK A01 T00810022  RH  066%=      5-min Rain = 0
KMC5 162053Z 35024G30KT 08/02 A3001 RMK A01 T00830019  RH  064%=      5-min Rain = 0
KMC5 162054Z 35026KT 08/02 A3001 RMK A01 T00820019  RH  064%=      5-min Rain = 0
KMC5 162055Z 34024KT 08/02 A3001 RMK A01 T00820020  RH  065%=      5-min Rain = 0
KMC5 162056Z 34021KT 08/02 A3001 RMK A01 T00830023  RH  066%=      5-min Rain = 0
KMC5 162057Z 34020KT 08/03 A3001 RMK A01 T00840026  RH  067%=      5-min Rain = 0
KMC5 162058Z 34025KT 08/03 A3001 RMK A01 T00840025  RH  067%=      5-min Rain = 0
KMC5 162059Z 34024G29KT 08/02 A3001 RMK A01 T00790022  RH  067%=      5-min Rain = 0
KMC5 162100Z 34024KT 08/02 A3001 RMK A01 T00770023  RH  068%=      5-min Rain = 0
KMC5 162101Z 35028KT 08/02 A3001 RMK A01 T00760022  RH  069%=      5-min Rain = 0
KMC5 162102Z 35026KT 07/02 A3001 RMK A01 T00740019  RH  068%=      5-min Rain = 0
KMC5 162103Z 35024G30KT 07/02 A3001 RMK A01 T00740020  RH  068%=      5-min Rain = 0
KMC5 162104Z 35028KT 07/02 A3001 RMK A01 T00740020  RH  069%=      5-min Rain = 0
KMC5 162105Z 34026KT 07/02 A3001 RMK A01 T00740019  RH  068%=      5-min Rain = 0
KMC5 162106Z 34022G28KT 07/02 A3001 RMK A01 T00740018  RH  068%=      5-min Rain = 0
KMC5 162107Z 34023KT 07/02 A3002 RMK A01 T00740020  RH  068%=      5-min Rain = 0
KMC5 162108Z 35023KT 07/02 A3002 RMK A01 T00740021  RH  069%=      5-min Rain = 0
KMC5 162109Z 35023KT 07/02 A3001 RMK A01 T00740022  RH  069%=      5-min Rain = 0
KMC5 162110Z 35026KT 07/02 A3001 RMK A01 T00730022  RH  070%=      5-min Rain = 0
KMC5 162111Z 35024G29KT 07/02 A3001 RMK A01 T00710021  RH  071%=      5-min Rain = 0
KMC5 162112Z 35023KT 07/02 A3002 RMK A01 T00690019  RH  070%=      5-min Rain = 0
KMC5 162113Z 35022KT 07/02 A3002 RMK A01 T00680020  RH  071%=      5-min Rain = 0
KMC5 162114Z 35025KT 07/02 A3002 RMK A01 T00680021  RH  072%=      5-min Rain = 0
KMC5 162115Z 34023KT 07/02 A3002 RMK A01 T00670020  RH  072%=      5-min Rain = 0
KMC5 162116Z 36023KT 07/02 A3001 RMK A01 T00680021  RH  072%=      5-min Rain = 0
KMC5 162117Z 35021G28KT 07/02 A3002 RMK A01 T00700023  RH  072%=      5-min Rain = 0
KMC5 162118Z 34023KT 07/02 A3002 RMK A01 T00710022  RH  071%=      5-min Rain = 0
KMC5 162119Z 35023G30KT 07/02 A3002 RMK A01 T00720022  RH  071%=      5-min Rain = 0
KMC5 162120Z 35024KT 07/02 A3002 RMK A01 T00710020  RH  070%=      5-min Rain = 0
KMC5 162121Z 34024KT 07/02 A3002 RMK A01 T00700020  RH  071%=      5-min Rain = 0
KMC5 162122Z 35025G30KT 07/02 A3002 RMK A01 T00680020  RH  071%=      5-min Rain = 0
KMC5 162123Z 35022G28KT 07/02 A3002 RMK A01 T00670019  RH  071%=      5-min Rain = 0
KMC5 162124Z 35021KT 07/02 A3002 RMK A01 T00670020  RH  072%=      5-min Rain = 0
KMC5 162125Z 35021G31KT 07/02 A3002 RMK A01 T00680021  RH  072%=      5-min Rain = 0
KMC5 162126Z 35028KT 07/02 A3002 RMK A01 T00690019  RH  070%=      5-min Rain = 0
KMC5 162127Z 35024G29KT 07/02 A3002 RMK A01 T00670017  RH  070%=      5-min Rain = 0
KMC5 162128Z 35023KT 07/02 A3002 RMK A01 T00670018  RH  071%=      5-min Rain = 0
KMC5 162129Z 34024KT 07/02 A3002 RMK A01 T00680018  RH  071%=      5-min Rain = 0
KMC5 162130Z 34023G28KT 07/02 A3002 RMK A01 T00680017  RH  070%=      5-min Rain = 0
KMC5 162131Z 34024G29KT 07/02 A3002 RMK A01 T00670015  RH  069%=      5-min Rain = 0
KMC5 162132Z 35023KT 07/02 A3002 RMK A01 T00680016  RH  070%=      5-min Rain = 0
KMC5 162133Z 35022KT 07/02 A3002 RMK A01 T00690017  RH  069%=      5-min Rain = 0
KMC5 162134Z 35025KT 07/02 A3002 RMK A01 T00690017  RH  069%=      5-min Rain = 0
KMC5 162135Z 35022KT 07/02 A3002 RMK A01 T00690017  RH  070%=      5-min Rain = 0
KMC5 162136Z 35018G23KT 07/02 A3002 RMK A01 T00680018  RH  070%=      5-min Rain = 0
KMC5 162137Z 35020G27KT 07/02 A3002 RMK A01 T00710020  RH  070%=      5-min Rain = 0
KMC5 162138Z 35024G30KT 07/02 A3002 RMK A01 T00710016  RH  068%=      5-min Rain = 0
KMC5 162139Z 35024KT 07/02 A3002 RMK A01 T00700017  RH  069%=      5-min Rain = 0
KMC5 162140Z 35024KT 07/02 A3002 RMK A01 T00680016  RH  070%=      5-min Rain = 0
KMC5 162141Z 35023KT 07/02 A3002 RMK A01 T00670017  RH  070%=      5-min Rain = 0
KMC5 162142Z 35024G29KT 07/02 A3002 RMK A01 T00660018  RH  071%=      5-min Rain = 0
KMC5 162143Z 35024KT 07/02 A3002 RMK A01 T00660017  RH  071%=      5-min Rain = 0
KMC5 162144Z 00025G30KT 07/02 A3002 RMK A01 T00660016  RH  071%=      5-min Rain = 0
KMC5 162145Z 35022KT 07/02 A3002 RMK A01 T00660016  RH  070%=      5-min Rain = 0
KMC5 162146Z 35024KT 07/02 A3002 RMK A01 T00660017  RH  071%=      5-min Rain = 0
KMC5 162147Z 34023KT 07/02 A3002 RMK A01 T00660017  RH  071%=      5-min Rain = 0
KMC5 162148Z 34024KT 07/02 A3002 RMK A01 T00660018  RH  071%=      5-min Rain = 0
KMC5 162149Z 35020KT 07/02 A3002 RMK A01 T00660017  RH  071%=      5-min Rain = 0
KMC5 162150Z 35023G28KT 07/02 A3002 RMK A01 T00660017  RH  071%=      5-min Rain = 0
KMC5 162151Z 35020G25KT 07/02 A3002 RMK A01 T00670017  RH  070%=      5-min Rain = 0
KMC5 162152Z 36024G29KT 07/02 A3002 RMK A01 T00670016  RH  070%=      5-min Rain = 0
KMC5 162153Z 35023G28KT 07/02 A3002 RMK A01 T00660015  RH  070%=      5-min Rain = 0
KMC5 162154Z 36021G28KT 07/02 A3003 RMK A01 T00660017  RH  071%=      5-min Rain = 0
KMC5 162155Z 35025KT 07/02 A3003 RMK A01 T00670017  RH  071%=      5-min Rain = 0
KMC5 162156Z 35024KT 07/02 A3003 RMK A01 T00660016  RH  071%=      5-min Rain = 0
KMC5 162157Z 35022KT 06/02 A3003 RMK A01 T00640016  RH  071%=      5-min Rain = 0
KMC5 162158Z 35021KT 06/02 A3003 RMK A01 T00630016  RH  072%=      5-min Rain = 0
KMC5 162159Z 36019KT 06/02 A3003 RMK A01 T00630017  RH  073%=      5-min Rain = 0
KMC5 162200Z 00019KT 06/02 A3003 RMK A01 T00630017  RH  072%=      5-min Rain = 0
KMC5 162201Z 36022G29KT 06/02 A3003 RMK A01 T00640017  RH  072%=      5-min Rain = 0
KMC5 162202Z 36019KT 06/02 A3003 RMK A01 T00640016  RH  071%=      5-min Rain = 0
KMC5 162203Z 35018KT 06/02 A3003 RMK A01 T00630016  RH  072%=      5-min Rain = 0
KMC5 162204Z 35019KT 06/02 A3003 RMK A01 T00640018  RH  072%=      5-min Rain = 0
KMC5 162205Z 35019KT 07/02 A3003 RMK A01 T00660017  RH  071%=      5-min Rain = 0
KMC5 162206Z 35019G24KT 07/02 A3003 RMK A01 T00660016  RH  071%=      5-min Rain = 0
KMC5 162207Z 35022KT 07/02 A3003 RMK A01 T00650016  RH  071%=      5-min Rain = 0
KMC5 162208Z 35021KT 06/02 A3003 RMK A01 T00640016  RH  071%=      5-min Rain = 0
KMC5 162209Z 34023KT 06/02 A3003 RMK A01 T00640016  RH  071%=      5-min Rain = 0
KMC5 162210Z 34023KT 06/02 A3003 RMK A01 T00640015  RH  071%=      5-min Rain = 0
KMC5 162211Z 35020KT 06/02 A3003 RMK A01 T00640015  RH  071%=      5-min Rain = 0
KMC5 162212Z 35021KT 06/02 A3003 RMK A01 T00640016  RH  071%=      5-min Rain = 0
KMC5 162213Z 36020KT 07/02 A3003 RMK A01 T00650016  RH  071%=      5-min Rain = 0
KMC5 162214Z 36023KT 07/02 A3003 RMK A01 T00660015  RH  070%=      5-min Rain = 0
KMC5 162215Z 35025KT 07/01 A3003 RMK A01 T00660013  RH  069%=      5-min Rain = 0
KMC5 162216Z 35024KT 07/01 A3003 RMK A01 T00650012  RH  069%=      5-min Rain = 0
KMC5 162217Z 35023KT 07/01 A3003 RMK A01 T00650014  RH  070%=      5-min Rain = 0
KMC5 162218Z 35019G24KT 07/01 A3003 RMK A01 T00650014  RH  070%=      5-min Rain = 0
KMC5 162219Z 35024G29KT 07/02 A3003 RMK A01 T00660016  RH  070%=      5-min Rain = 0
KMC5 162220Z 35025KT 07/01 A3003 RMK A01 T00670014  RH  069%=      5-min Rain = 0
KMC5 162221Z 35023G29KT 07/02 A3003 RMK A01 T00660015  RH  070%=      5-min Rain = 0
KMC5 162222Z 35021G26KT 07/02 A3003 RMK A01 T00660015  RH  070%=      5-min Rain = 0
KMC5 162223Z 35022G27KT 07/02 A3003 RMK A01 T00660015  RH  070%=      5-min Rain = 0
KMC5 162224Z 34023G29KT 07/01 A3003 RMK A01 T00660014  RH  069%=      5-min Rain = 0
KMC5 162225Z 35023KT 07/01 A3003 RMK A01 T00670014  RH  069%=      5-min Rain = 0
KMC5 162226Z 35023KT 07/01 A3003 RMK A01 T00680013  RH  068%=      5-min Rain = 0
KMC5 162227Z 35026KT 07/01 A3003 RMK A01 T00680013  RH  068%=      5-min Rain = 0
KMC5 162228Z 34025KT 07/01 A3004 RMK A01 T00670013  RH  069%=      5-min Rain = 0
KMC5 162229Z 34023KT 07/01 A3004 RMK A01 T00670013  RH  068%=      5-min Rain = 0
KMC5 162230Z 34024KT 07/01 A3004 RMK A01 T00670014  RH  069%=      5-min Rain = 0
KMC5 162231Z 35023G28KT 07/01 A3004 RMK A01 T00670014  RH  069%=      5-min Rain = 0
KMC5 162232Z 34027KT 07/01 A3004 RMK A01 T00660012  RH  068%=      5-min Rain = 0
KMC5 162233Z 34021G27KT 07/01 A3004 RMK A01 T00650013  RH  069%=      5-min Rain = 0
KMC5 162234Z 35025KT 07/01 A3004 RMK A01 T00660014  RH  069%=      5-min Rain = 0
KMC5 162235Z 35022KT 07/01 A3004 RMK A01 T00660014  RH  070%=      5-min Rain = 0
KMC5 162236Z 35024G29KT 07/01 A3003 RMK A01 T00650014  RH  070%=      5-min Rain = 0
KMC5 162237Z 35024KT 07/02 A3004 RMK A01 T00650015  RH  070%=      5-min Rain = 0
KMC5 162238Z 35024G29KT 07/02 A3004 RMK A01 T00650015  RH  071%=      5-min Rain = 0
KMC5 162239Z 36024KT 07/02 A3003 RMK A01 T00660015  RH  070%=      5-min Rain = 0
KMC5 162240Z 35025KT 07/02 A3004 RMK A01 T00660015  RH  070%=      5-min Rain = 0
KMC5 162241Z 36024KT 07/02 A3004 RMK A01 T00660015  RH  070%=      5-min Rain = 0
KMC5 162242Z 35022G27KT 07/02 A3004 RMK A01 T00670016  RH  070%=      5-min Rain = 0
KMC5 162243Z 35024G29KT 07/02 A3004 RMK A01 T00670015  RH  069%=      5-min Rain = 0
KMC5 162244Z 35024G29KT 07/01 A3004 RMK A01 T00660014  RH  069%=      5-min Rain = 0
KMC5 162245Z 34022G28KT 07/01 A3004 RMK A01 T00650014  RH  070%=      5-min Rain = 0
KMC5 162246Z 34025KT 07/01 A3004 RMK A01 T00650013  RH  069%=      5-min Rain = 0
KMC5 162247Z 35024KT 06/01 A3004 RMK A01 T00640013  RH  069%=      5-min Rain = 0
KMC5 162248Z 35022KT 06/01 A3004 RMK A01 T00640013  RH  070%=      5-min Rain = 0
KMC5 162249Z 35023KT 07/01 A3004 RMK A01 T00650012  RH  069%=      5-min Rain = 0
KMC5 162250Z 35024G29KT 07/01 A3004 RMK A01 T00650012  RH  069%=      5-min Rain = 0
KMC5 162251Z 35024G29KT 06/01 A3004 RMK A01 T00640011  RH  069%=      5-min Rain = 0
KMC5 162252Z 34024G29KT 06/01 A3005 RMK A01 T00640010  RH  068%=      5-min Rain = 0
KMC5 162253Z 35021G26KT 06/01 A3005 RMK A01 T00630010  RH  069%=      5-min Rain = 0
KMC5 162254Z 35024KT 06/01 A3004 RMK A01 T00640010  RH  068%=      5-min Rain = 0
KMC5 162255Z 35022G27KT 06/01 A3005 RMK A01 T00640010  RH  068%=      5-min Rain = 0
KMC5 162256Z 35024KT 06/01 A3004 RMK A01 T00640011  RH  069%=      5-min Rain = 0
KMC5 162257Z 35023KT 06/01 A3004 RMK A01 T00630009  RH  068%=      5-min Rain = 0
KMC5 162258Z 35024G29KT 06/01 A3004 RMK A01 T00630009  RH  068%=      5-min Rain = 0
KMC5 162259Z 35024KT 06/01 A3004 RMK A01 T00630009  RH  068%=      5-min Rain = 0
KMC5 162300Z 36020G25KT 06/01 A3004 RMK A01 T00640010  RH  068%=      5-min Rain = 0
KMC5 162301Z 35024KT 07/01 A3004 RMK A01 T00650011  RH  068%=      5-min Rain = 0
KMC5 162302Z 35023KT 07/01 A3005 RMK A01 T00650011  RH  068%=      5-min Rain = 0
KMC5 162303Z 36022KT 07/01 A3005 RMK A01 T00650009  RH  068%=      5-min Rain = 0
KMC5 162304Z 36025KT 07/01 A3005 RMK A01 T00650010  RH  068%=      5-min Rain = 0
KMC5 162305Z 00025KT 07/01 A3005 RMK A01 T00650010  RH  068%=      5-min Rain = 0
KMC5 162306Z 36025KT 07/01 A3005 RMK A01 T00650009  RH  068%=      5-min Rain = 0
KMC5 162307Z 36023KT 06/01 A3005 RMK A01 T00640009  RH  068%=      5-min Rain = 0
KMC5 162308Z 00027KT 06/01 A3005 RMK A01 T00640010  RH  068%=      5-min Rain = 0
KMC5 162309Z 36026KT 06/01 A3005 RMK A01 T00630010  RH  069%=      5-min Rain = 0
KMC5 162310Z 36021KT 06/01 A3005 RMK A01 T00630011  RH  070%=      5-min Rain = 0
KMC5 162311Z 36019G27KT 06/01 A3005 RMK A01 T00630012  RH  070%=      5-min Rain = 0
KMC5 162312Z 36026KT 06/01 A3005 RMK A01 T00630012  RH  070%=      5-min Rain = 0
KMC5 162313Z 36025KT 06/01 A3005 RMK A01 T00630011  RH  070%=      5-min Rain = 0
KMC5 162314Z 36023KT 06/01 A3005 RMK A01 T00620012  RH  070%=      5-min Rain = 0
KMC5 162315Z 35024G29KT 06/01 A3005 RMK A01 T00620012  RH  070%=      5-min Rain = 0
KMC5 162316Z 36023G28KT 06/01 A3005 RMK A01 T00620011  RH  070%=      5-min Rain = 0
KMC5 162317Z 36021KT 06/01 A3005 RMK A01 T00610011  RH  070%=      5-min Rain = 0
KMC5 162318Z 36022KT 06/01 A3005 RMK A01 T00610012  RH  070%=      5-min Rain = 0
KMC5 162319Z 35024G29KT 06/01 A3005 RMK A01 T00610012  RH  070%=      5-min Rain = 0
KMC5 162320Z 36018KT 06/01 A3005 RMK A01 T00610013  RH  071%=      5-min Rain = 0
KMC5 162321Z 35021G26KT 06/01 A3005 RMK A01 T00610013  RH  071%=      5-min Rain = 0
KMC5 162322Z 35026KT 06/01 A3005 RMK A01 T00620012  RH  071%=      5-min Rain = 0
KMC5 162323Z 35024G29KT 06/01 A3005 RMK A01 T00610011  RH  071%=      5-min Rain = 0
KMC5 162324Z 36024KT 06/01 A3005 RMK A01 T00600011  RH  071%=      5-min Rain = 0
KMC5 162325Z 35023KT 06/01 A3005 RMK A01 T00600010  RH  070%=      5-min Rain = 0
KMC5 162326Z 35025KT 06/01 A3005 RMK A01 T00600009  RH  070%=      5-min Rain = 0
KMC5 162327Z 35025G30KT 06/01 A3005 RMK A01 T00600009  RH  070%=      5-min Rain = 0
KMC5 162328Z 35021KT 06/01 A3005 RMK A01 T00600010  RH  070%=      5-min Rain = 0
KMC5 162329Z 35025G30KT 06/01 A3005 RMK A01 T00600010  RH  070%=      5-min Rain = 0
KMC5 162330Z 35023KT 06/01 A3005 RMK A01 T00600009  RH  070%=      5-min Rain = 0
KMC5 162331Z 35023G28KT 06/01 A3005 RMK A01 T00600009  RH  070%=      5-min Rain = 0
KMC5 162332Z 35024G33KT 06/01 A3005 RMK A01 T00600009  RH  070%=      5-min Rain = 0
KMC5 162333Z 35027G33KT 06/01 A3005 RMK A01 T00600008  RH  069%=      5-min Rain = 0
KMC5 162334Z 36025G30KT 06/01 A3005 RMK A01 T00600008  RH  069%=      5-min Rain = 0
KMC5 162335Z 35026KT 06/01 A3005 RMK A01 T00610009  RH  070%=      5-min Rain = 0
KMC5 162336Z 35022G27KT 06/01 A3006 RMK A01 T00610009  RH  069%=      5-min Rain = 0
KMC5 162337Z 35024KT 06/01 A3006 RMK A01 T00610009  RH  070%=      5-min Rain = 0
KMC5 162338Z 35025KT 06/01 A3005 RMK A01 T00610008  RH  069%=      5-min Rain = 0
KMC5 162339Z 36022KT 06/01 A3005 RMK A01 T00610009  RH  070%=      5-min Rain = 0
KMC5 162340Z 00023KT 06/01 A3005 RMK A01 T00600009  RH  070%=      5-min Rain = 0
KMC5 162341Z 36018KT 06/01 A3005 RMK A01 T00610010  RH  070%=      5-min Rain = 0
KMC5 162342Z 00019KT 06/01 A3005 RMK A01 T00620012  RH  070%=      5-min Rain = 0
KMC5 162343Z 00021KT 06/01 A3005 RMK A01 T00630012  RH  069%=      5-min Rain = 0
KMC5 162344Z 36023KT 06/01 A3005 RMK A01 T00630011  RH  069%=      5-min Rain = 0
KMC5 162345Z 36023KT 06/01 A3006 RMK A01 T00620010  RH  069%=      5-min Rain = 0
KMC5 162346Z 36021KT 06/01 A3006 RMK A01 T00610010  RH  070%=      5-min Rain = 0
KMC5 162347Z 35024KT 06/01 A3006 RMK A01 T00600011  RH  070%=      5-min Rain = 0
KMC5 162348Z 36019G24KT 06/01 A3006 RMK A01 T00600011  RH  071%=      5-min Rain = 0
KMC5 162349Z 36019G24KT 06/01 A3006 RMK A01 T00600011  RH  071%=      5-min Rain = 0
KMC5 162350Z 35021KT 06/01 A3006 RMK A01 T00610012  RH  071%=      5-min Rain = 0
KMC5 162351Z 36021KT 06/01 A3006 RMK A01 T00610012  RH  071%=      5-min Rain = 0
KMC5 162352Z 35019KT 06/01 A3006 RMK A01 T00600011  RH  071%=      5-min Rain = 0
KMC5 162353Z 35023G28KT 06/01 A3006 RMK A01 T00600011  RH  071%=      5-min Rain = 0
KMC5 162354Z 35023KT 06/01 A3006 RMK A01 T00600011  RH  071%=      5-min Rain = 0
KMC5 162355Z 35024KT 06/01 A3006 RMK A01 T00590011  RH  071%=      5-min Rain = 0
KMC5 162356Z 00024G29KT 06/01 A3006 RMK A01 T00590012  RH  071%=      5-min Rain = 0
KMC5 162357Z 36022G27KT 06/01 A3006 RMK A01 T00590011  RH  071%=      5-min Rain = 0
KMC5 162358Z 00021G27KT 06/01 A3006 RMK A01 T00590012  RH  072%=      5-min Rain = 0
KMC5 162359Z 35022KT 06/01 A3006 RMK A01 T00590012  RH  072%=      5-min Rain = 0
KMC5 170000Z 36020KT 06/01 A3006 RMK A01 T00590012  RH  072%=      5-min Rain = 0
KMC5 170001Z 36020KT 06/01 A3006 RMK A01 T00590012  RH  072%=      5-min Rain = 0
KMC5 170002Z 36019KT 06/01 A3006 RMK A01 T00590012  RH  072%=      5-min Rain = 0
KMC5 170003Z 35023G28KT 06/01 A3006 RMK A01 T00600011  RH  071%=      5-min Rain = 0
KMC5 170004Z 00021KT 06/01 A3006 RMK A01 T00600009  RH  070%=      5-min Rain = 0
KMC5 170005Z 36022G27KT 06/01 A3006 RMK A01 T00610009  RH  070%=      5-min Rain = 0
KMC5 170006Z 35024G30KT 06/01 A3006 RMK A01 T00610008  RH  069%=      5-min Rain = 0
KMC5 170007Z 35026KT 06/01 A3006 RMK A01 T00610006  RH  068%=      5-min Rain = 0
KMC5 170008Z 35025KT 06/01 A3006 RMK A01 T00610007  RH  068%=      5-min Rain = 0
KMC5 170009Z 36022KT 06/01 A3006 RMK A01 T00610006  RH  068%=      5-min Rain = 0
KMC5 170010Z 36020G28KT 06/01 A3007 RMK A01 T00610008  RH  069%=      5-min Rain = 0
KMC5 170011Z 00023KT 06/01 A3006 RMK A01 T00610007  RH  069%=      5-min Rain = 0
KMC5 170012Z 36027G32KT 06/01 A3006 RMK A01 T00610008  RH  069%=      5-min Rain = 0
KMC5 170013Z 36025KT 06/01 A3006 RMK A01 T00600006  RH  068%=      5-min Rain = 0
KMC5 170014Z 36023KT 06/01 A3006 RMK A01 T00610006  RH  068%=      5-min Rain = 0
KMC5 170015Z 36024G29KT 06/01 A3007 RMK A01 T00600006  RH  068%=      5-min Rain = 0
KMC5 170016Z 36024KT 06/01 A3007 RMK A01 T00610006  RH  068%=      5-min Rain = 0
KMC5 170017Z 35023G29KT 06/01 A3007 RMK A01 T00610006  RH  068%=      5-min Rain = 0
KMC5 170018Z 36026KT 06/01 A3007 RMK A01 T00610006  RH  068%=      5-min Rain = 0
KMC5 170019Z 00023G28KT 06/01 A3007 RMK A01 T00600006  RH  068%=      5-min Rain = 0
KMC5 170020Z 36023KT 06/01 A3007 RMK A01 T00600006  RH  068%=      5-min Rain = 0
KMC5 170021Z 00022G30KT 06/01 A3007 RMK A01 T00600006  RH  068%=      5-min Rain = 0
KMC5 170022Z 36026KT 06/01 A3007 RMK A01 T00600005  RH  068%=      5-min Rain = 0
KMC5 170023Z 35023G30KT 06/01 A3007 RMK A01 T00600005  RH  068%=      5-min Rain = 0
KMC5 170024Z 36024G29KT 06/00 A3007 RMK A01 T00600004  RH  067%=      5-min Rain = 0
KMC5 170025Z 35026KT 06/00 A3007 RMK A01 T00600003  RH  067%=      5-min Rain = 0
KMC5 170026Z 00025G30KT 06/00 A3007 RMK A01 T00600003  RH  067%=      5-min Rain = 0
KMC5 170027Z 35028KT 06/00 A3006 RMK A01 T00600004  RH  067%=      5-min Rain = 0
KMC5 170028Z 36025G31KT 06/00 A3006 RMK A01 T00600003  RH  067%=      5-min Rain = 0
KMC5 170029Z 35023G30KT 06/00 A3007 RMK A01 T00600004  RH  068%=      5-min Rain = 0
KMC5 170030Z 35027KT 06/00 A3006 RMK A01 T00600003  RH  067%=      5-min Rain = 0
KMC5 170031Z 35026KT 06/00 A3007 RMK A01 T00590004  RH  068%=      5-min Rain = 0
KMC5 170032Z 35022KT 06/01 A3007 RMK A01 T00590005  RH  068%=      5-min Rain = 0
KMC5 170033Z 35022KT 06/01 A3007 RMK A01 T00590006  RH  069%=      5-min Rain = 0
KMC5 170034Z 00023KT 06/01 A3007 RMK A01 T00590005  RH  068%=      5-min Rain = 0
KMC5 170035Z 36025KT 06/01 A3007 RMK A01 T00580005  RH  068%=      5-min Rain = 0
KMC5 170036Z 36025KT 06/00 A3007 RMK A01 T00580004  RH  069%=      5-min Rain = 0
KMC5 170037Z 35024G29KT 06/01 A3007 RMK A01 T00580005  RH  069%=      5-min Rain = 0
KMC5 170038Z 00022KT 06/01 A3007 RMK A01 T00580005  RH  069%=      5-min Rain = 0
KMC5 170039Z 36023KT 06/00 A3007 RMK A01 T00570004  RH  069%=      5-min Rain = 0
KMC5 170040Z 36023G28KT 06/00 A3007 RMK A01 T00570004  RH  068%=      5-min Rain = 0
KMC5 170041Z 36023KT 06/00 A3007 RMK A01 T00570004  RH  069%=      5-min Rain = 0
KMC5 170042Z 00021G27KT 06/00 A3007 RMK A01 T00570004  RH  069%=      5-min Rain = 0
KMC5 170043Z 36024G30KT 06/00 A3007 RMK A01 T00570004  RH  069%=      5-min Rain = 0
KMC5 170044Z 36023G28KT 06/00 A3007 RMK A01 T00570004  RH  069%=      5-min Rain = 0
KMC5 170045Z 36026KT 06/00 A3007 RMK A01 T00570004  RH  069%=      5-min Rain = 0
KMC5 170046Z 35025G30KT 06/00 A3007 RMK A01 T00570004  RH  069%=      5-min Rain = 0
KMC5 170047Z 36025G30KT 06/00 A3007 RMK A01 T00570004  RH  069%=      5-min Rain = 0
KMC5 170048Z 36023KT 06/00 A3007 RMK A01 T00570003  RH  068%=      5-min Rain = 0
KMC5 170049Z 36021KT 06/00 A3007 RMK A01 T00570004  RH  069%=      5-min Rain = 0
KMC5 170050Z 36025KT 06/00 A3007 RMK A01 T00570004  RH  068%=      5-min Rain = 0
KMC5 170051Z 35024KT 06/00 A3007 RMK A01 T00570003  RH  068%=      5-min Rain = 0
KMC5 170052Z 36024G29KT 06/00 A3007 RMK A01 T00570003  RH  068%=      5-min Rain = 0
KMC5 170053Z 35023KT 06/00 A3007 RMK A01 T00560003  RH  069%=      5-min Rain = 0
KMC5 170054Z 36025G31KT 06/00 A3007 RMK A01 T00550002  RH  069%=      5-min Rain = 0
KMC5 170055Z 35025KT 06/M00 A3007 RMK A01 T00551003  RH  066%=      5-min Rain = 0
KMC5 170056Z 35025KT 06/M00 A3007 RMK A01 T00551003  RH  066%=      5-min Rain = 0
KMC5 170057Z 35025KT 06/M00 A3007 RMK A01 T00551002  RH  067%=      5-min Rain = 0
KMC5 170058Z 36024KT 06/M00 A3007 RMK A01 T00551002  RH  067%=      5-min Rain = 0
KMC5 170059Z 35025KT 06/M00 A3007 RMK A01 T00551001  RH  067%=      5-min Rain = 0
KMC5 170100Z 36024KT 06/00 A3007 RMK A01 T005500-0  RH  068%=      5-min Rain = 0
KMC5 170101Z 35021KT 06/00 A3007 RMK A01 T00550000  RH  068%=      5-min Rain = 0
KMC5 170102Z 36023KT 05/00 A3007 RMK A01 T00540000  RH  068%=      5-min Rain = 0
KMC5 170103Z 36022G27KT 05/00 A3007 RMK A01 T00540001  RH  069%=      5-min Rain = 0
KMC5 170104Z 36021KT 05/00 A3007 RMK A01 T00540001  RH  069%=      5-min Rain = 0
KMC5 170105Z 36021KT 05/00 A3007 RMK A01 T00530001  RH  069%=      5-min Rain = 0
KMC5 170106Z 35024KT 05/00 A3007 RMK A01 T00530000  RH  069%=      5-min Rain = 0
KMC5 170107Z 35022KT 05/00 A3007 RMK A01 T00530001  RH  069%=      5-min Rain = 0
KMC5 170108Z 36021KT 05/00 A3007 RMK A01 T00520000  RH  069%=      5-min Rain = 0
KMC5 170109Z 36019G24KT 05/00 A3007 RMK A01 T00520000  RH  069%=      5-min Rain = 0
KMC5 170110Z 36018KT 05/00 A3007 RMK A01 T00510001  RH  070%=      5-min Rain = 0
KMC5 170111Z 00017KT 05/00 A3007 RMK A01 T00510001  RH  070%=      5-min Rain = 0
KMC5 170112Z 00017KT 05/00 A3007 RMK A01 T00500001  RH  071%=      5-min Rain = 0
KMC5 170113Z 36016KT 05/00 A3008 RMK A01 T00500002  RH  071%=      5-min Rain = 0
KMC5 170114Z 00016KT 05/00 A3008 RMK A01 T00500001  RH  071%=      5-min Rain = 0
KMC5 170115Z 00016KT 05/00 A3008 RMK A01 T00500002  RH  071%=      5-min Rain = 0
KMC5 170116Z 36015KT 05/00 A3008 RMK A01 T00490002  RH  071%=      5-min Rain = 0
KMC5 170117Z 00016KT 05/00 A3008 RMK A01 T00490002  RH  071%=      5-min Rain = 0
KMC5 170118Z 36017KT 05/00 A3008 RMK A01 T00490002  RH  072%=      5-min Rain = 0
KMC5 170119Z 36017KT 05/00 A3008 RMK A01 T00490002  RH  072%=      5-min Rain = 0
KMC5 170120Z 35018KT 05/00 A3008 RMK A01 T00490002  RH  072%=      5-min Rain = 0
KMC5 170121Z 36017KT 05/00 A3008 RMK A01 T00490002  RH  072%=      5-min Rain = 0
KMC5 170122Z 00016KT 05/00 A3008 RMK A01 T00490001  RH  071%=      5-min Rain = 0
KMC5 170123Z 36017KT 05/00 A3008 RMK A01 T00490001  RH  071%=      5-min Rain = 0
KMC5 170124Z 35018KT 05/00 A3008 RMK A01 T00490001  RH  071%=      5-min Rain = 0
KMC5 170125Z 36016KT 05/00 A3008 RMK A01 T00490001  RH  071%=      5-min Rain = 0
KMC5 170126Z 01018KT 05/00 A3008 RMK A01 T00490002  RH  072%=      5-min Rain = 0
KMC5 170127Z 36017KT 05/00 A3009 RMK A01 T00490002  RH  072%=      5-min Rain = 0
KMC5 170128Z 00015KT 05/00 A3009 RMK A01 T00490002  RH  072%=      5-min Rain = 0
KMC5 170129Z 36017KT 05/00 A3009 RMK A01 T00490002  RH  072%=      5-min Rain = 0
KMC5 170130Z 36017KT 05/00 A3009 RMK A01 T00490002  RH  072%=      5-min Rain = 0
KMC5 170131Z 36016KT 05/00 A3009 RMK A01 T00490002  RH  072%=      5-min Rain = 0
KMC5 170132Z 36016KT 05/00 A3009 RMK A01 T00480002  RH  072%=      5-min Rain = 0
KMC5 170133Z 36016KT 05/00 A3009 RMK A01 T00480002  RH  072%=      5-min Rain = 0
KMC5 170134Z 36016KT 05/00 A3009 RMK A01 T00480002  RH  072%=      5-min Rain = 0
KMC5 170135Z 00014KT 05/00 A3009 RMK A01 T00480002  RH  072%=      5-min Rain = 0
KMC5 170136Z 36015KT 05/00 A3009 RMK A01 T00470002  RH  072%=      5-min Rain = 0
KMC5 170137Z 00015KT 05/00 A3009 RMK A01 T00470002  RH  073%=      5-min Rain = 0
KMC5 170138Z 00015KT 05/00 A3009 RMK A01 T00470003  RH  073%=      5-min Rain = 0
KMC5 170139Z 36015KT 05/00 A3009 RMK A01 T00470002  RH  073%=      5-min Rain = 0
KMC5 170140Z 00016KT 05/00 A3009 RMK A01 T00470002  RH  072%=      5-min Rain = 0
KMC5 170141Z 36017KT 05/00 A301 RMK A01 T00470002  RH  072%=      5-min Rain = 0
KMC5 170142Z 00016KT 05/00 A301 RMK A01 T00480002  RH  072%=      5-min Rain = 0
KMC5 170143Z 00014KT 05/00 A301 RMK A01 T00480002  RH  072%=      5-min Rain = 0
KMC5 170144Z 00016KT 05/00 A301 RMK A01 T00480002  RH  072%=      5-min Rain = 0
KMC5 170145Z 00015KT 05/00 A301 RMK A01 T00470002  RH  072%=      5-min Rain = 0
KMC5 170146Z 36014KT 05/00 A301 RMK A01 T00480002  RH  072%=      5-min Rain = 0
KMC5 170147Z 00015KT 05/00 A301 RMK A01 T00470002  RH  073%=      5-min Rain = 0
KMC5 170148Z 35014KT 05/00 A301 RMK A01 T00470002  RH  073%=      5-min Rain = 0
KMC5 170149Z 36013KT 05/00 A301 RMK A01 T00470002  RH  073%=      5-min Rain = 0
KMC5 170150Z 35014KT 05/00 A301 RMK A01 T00470002  RH  073%=      5-min Rain = 0
KMC5 170151Z 35013KT 05/00 A301 RMK A01 T00460002  RH  073%=      5-min Rain = 0
KMC5 170152Z 36013KT 05/00 A301 RMK A01 T00460003  RH  073%=      5-min Rain = 0
KMC5 170153Z 36013KT 05/00 A301 RMK A01 T00460003  RH  073%=      5-min Rain = 0
KMC5 170154Z 35015KT 05/00 A301 RMK A01 T00460003  RH  074%=      5-min Rain = 0
KMC5 170155Z 35015KT 05/00 A301 RMK A01 T00460003  RH  073%=      5-min Rain = 0
KMC5 170156Z 35014KT 05/00 A301 RMK A01 T00460002  RH  073%=      5-min Rain = 0
KMC5 170157Z 35013KT 05/00 A3011 RMK A01 T00460003  RH  073%=      5-min Rain = 0
KMC5 170158Z 35014KT 05/00 A3011 RMK A01 T00460003  RH  074%=      5-min Rain = 0
KMC5 170159Z 35014KT 05/00 A3011 RMK A01 T00460004  RH  074%=      5-min Rain = 0
KMC5 170200Z 35015KT 05/00 A301 RMK A01 T00460004  RH  074%=      5-min Rain = 0
KMC5 170201Z 35014KT 05/00 A3011 RMK A01 T00460003  RH  074%=      5-min Rain = 0
KMC5 170202Z 35012KT 05/00 A3011 RMK A01 T00460004  RH  074%=      5-min Rain = 0
KMC5 170203Z 35014KT 05/00 A3011 RMK A01 T00460004  RH  074%=      5-min Rain = 0
KMC5 170204Z 35014KT 05/00 A3011 RMK A01 T00450003  RH  074%=      5-min Rain = 0
KMC5 170205Z 35014KT 05/00 A3011 RMK A01 T00460004  RH  074%=      5-min Rain = 0
KMC5 170206Z 36014KT 05/00 A3011 RMK A01 T00460003  RH  074%=      5-min Rain = 0
KMC5 170207Z 35014KT 05/00 A3011 RMK A01 T00450003  RH  074%=      5-min Rain = 0
KMC5 170208Z 36012KT 05/00 A3011 RMK A01 T00460004  RH  074%=      5-min Rain = 0
KMC5 170209Z 35014KT 05/00 A3011 RMK A01 T00450004  RH  075%=      5-min Rain = 0
KMC5 170210Z 35011KT 05/00 A3011 RMK A01 T00450004  RH  075%=      5-min Rain = 0
KMC5 170211Z 35013KT 04/00 A3011 RMK A01 T00440004  RH  075%=      5-min Rain = 0
KMC5 170212Z 35011KT 04/00 A3011 RMK A01 T00440004  RH  075%=      5-min Rain = 0
KMC5 170213Z 36013KT 04/00 A3011 RMK A01 T00430004  RH  075%=      5-min Rain = 0
KMC5 170214Z 36014KT 04/00 A3011 RMK A01 T00430004  RH  076%=      5-min Rain = 0
KMC5 170215Z 36014KT 04/00 A3011 RMK A01 T00430004  RH  076%=      5-min Rain = 0
KMC5 170216Z 36014KT 04/00 A3011 RMK A01 T00430004  RH  076%=      5-min Rain = 0
KMC5 170217Z 36013KT 04/00 A3011 RMK A01 T00430004  RH  076%=      5-min Rain = 0
KMC5 170218Z 36014KT 04/00 A3011 RMK A01 T00430004  RH  076%=      5-min Rain = 0
KMC5 170219Z 36013KT 04/00 A3011 RMK A01 T00430004  RH  076%=      5-min Rain = 0
KMC5 170220Z 36013KT 04/00 A3012 RMK A01 T00420004  RH  076%=      5-min Rain = 0
KMC5 170221Z 00014KT 04/00 A3011 RMK A01 T00410004  RH  076%=      5-min Rain = 0
KMC5 170222Z 00013KT 04/00 A3011 RMK A01 T00410004  RH  076%=      5-min Rain = 0
KMC5 170223Z 01013KT 04/00 A3011 RMK A01 T00410004  RH  077%=      5-min Rain = 0
KMC5 170224Z 00015KT 04/00 A3011 RMK A01 T00410004  RH  077%=      5-min Rain = 0
KMC5 170225Z 00015KT 04/00 A3011 RMK A01 T00410004  RH  077%=      5-min Rain = 0
KMC5 170226Z 00015KT 04/00 A3011 RMK A01 T00410004  RH  077%=      5-min Rain = 0
KMC5 170227Z 00017KT 04/00 A3011 RMK A01 T00410004  RH  077%=      5-min Rain = 0
KMC5 170228Z 00015KT 04/00 A3011 RMK A01 T00410004  RH  077%=      5-min Rain = 0
KMC5 170229Z 01015KT 04/00 A3011 RMK A01 T00410004  RH  076%=      5-min Rain = 0
KMC5 170230Z 00015KT 04/00 A3011 RMK A01 T00410004  RH  077%=      5-min Rain = 0
KMC5 170231Z 00014KT 04/00 A3012 RMK A01 T00410004  RH  077%=      5-min Rain = 0
KMC5 170232Z 00014G19KT 04/00 A3012 RMK A01 T00400004  RH  077%=      5-min Rain = 0
KMC5 170233Z 01014KT 04/00 A3012 RMK A01 T00400004  RH  077%=      5-min Rain = 0
KMC5 170234Z 01013KT 04/00 A3012 RMK A01 T00400004  RH  077%=      5-min Rain = 0
KMC5 170235Z 01014KT 04/00 A3012 RMK A01 T00390004  RH  078%=      5-min Rain = 0
KMC5 170236Z 01013KT 04/00 A3012 RMK A01 T00390004  RH  078%=      5-min Rain = 0
KMC5 170237Z 01013KT 04/00 A3012 RMK A01 T00390004  RH  078%=      5-min Rain = 0
KMC5 170238Z 01015KT 04/00 A3012 RMK A01 T00380003  RH  078%=      5-min Rain = 0
KMC5 170239Z 00013KT 04/00 A3012 RMK A01 T00380004  RH  078%=      5-min Rain = 0
KMC5 170240Z 00012KT 04/00 A3012 RMK A01 T00380004  RH  078%=      5-min Rain = 0
KMC5 170241Z 01014KT 04/00 A3012 RMK A01 T00380004  RH  078%=      5-min Rain = 0
KMC5 170242Z 00014KT 04/00 A3012 RMK A01 T00380004  RH  078%=      5-min Rain = 0
KMC5 170243Z 01014KT 04/00 A3012 RMK A01 T00380004  RH  078%=      5-min Rain = 0
KMC5 170244Z 00016KT 04/00 A3012 RMK A01 T00390004  RH  078%=      5-min Rain = 0
KMC5 170245Z 00015KT 04/00 A3012 RMK A01 T00390004  RH  078%=      5-min Rain = 0
KMC5 170246Z 00014KT 04/00 A3012 RMK A01 T00390004  RH  078%=      5-min Rain = 0
KMC5 170247Z 00015KT 04/00 A3012 RMK A01 T00390004  RH  078%=      5-min Rain = 0
KMC5 170248Z 01014KT 04/00 A3012 RMK A01 T00390004  RH  078%=      5-min Rain = 0
KMC5 170249Z 01014KT 04/00 A3012 RMK A01 T00400004  RH  078%=      5-min Rain = 0
KMC5 170250Z 01014KT 04/00 A3012 RMK A01 T00400004  RH  078%=      5-min Rain = 0
KMC5 170251Z 01012KT 04/00 A3012 RMK A01 T00390004  RH  078%=      5-min Rain = 0
KMC5 170252Z 00013KT 04/00 A3012 RMK A01 T00390004  RH  078%=      5-min Rain = 0
KMC5 170253Z 00014KT 04/00 A3012 RMK A01 T00390004  RH  078%=      5-min Rain = 0
KMC5 170254Z 01013KT 04/00 A3012 RMK A01 T00390004  RH  078%=      5-min Rain = 0
KMC5 170255Z 00012KT 04/00 A3012 RMK A01 T00390004  RH  078%=      5-min Rain = 0
KMC5 170256Z 01015KT 04/00 A3012 RMK A01 T00380004  RH  078%=      5-min Rain = 0
KMC5 170257Z 01013KT 04/00 A3012 RMK A01 T00380004  RH  078%=      5-min Rain = 0
KMC5 170258Z 00016KT 04/00 A3012 RMK A01 T00380004  RH  078%=      5-min Rain = 0
KMC5 170259Z 01013KT 04/00 A3012 RMK A01 T00390004  RH  078%=      5-min Rain = 0
KMC5 170300Z 01012KT 04/00 A3012 RMK A01 T00390004  RH  078%=      5-min Rain = 0
KMC5 170301Z 01012KT 04/00 A3013 RMK A01 T00380004  RH  079%=      5-min Rain = 0
KMC5 170302Z 00013KT 04/00 A3013 RMK A01 T00380004  RH  079%=      5-min Rain = 0
KMC5 170303Z 01013KT 04/01 A3013 RMK A01 T00380005  RH  079%=      5-min Rain = 0
KMC5 170304Z 01012KT 04/00 A3013 RMK A01 T00380004  RH  079%=      5-min Rain = 0
KMC5 170305Z 01011KT 04/00 A3013 RMK A01 T00380004  RH  079%=      5-min Rain = 0
KMC5 170306Z 01012KT 04/00 A3013 RMK A01 T00370004  RH  079%=      5-min Rain = 0
KMC5 170307Z 00011KT 04/00 A3013 RMK A01 T00370004  RH  079%=      5-min Rain = 0
KMC5 170308Z 00011KT 04/01 A3013 RMK A01 T00370005  RH  079%=      5-min Rain = 0
KMC5 170309Z 00012KT 04/01 A3013 RMK A01 T00370005  RH  079%=      5-min Rain = 0
KMC5 170310Z 01011KT 04/01 A3013 RMK A01 T00370005  RH  079%=      5-min Rain = 0
KMC5 170311Z 01010KT 04/01 A3014 RMK A01 T00380005  RH  079%=      5-min Rain = 0
KMC5 170312Z 01010KT 04/01 A3014 RMK A01 T00380005  RH  079%=      5-min Rain = 0
KMC5 170313Z 00010KT 04/01 A3014 RMK A01 T00370005  RH  079%=      5-min Rain = 0
KMC5 170314Z 01011KT 04/01 A3014 RMK A01 T00370005  RH  080%=      5-min Rain = 0
KMC5 170315Z 00011KT 04/01 A3014 RMK A01 T00370005  RH  080%=      5-min Rain = 0
KMC5 170316Z 00010KT 04/01 A3014 RMK A01 T00370005  RH  080%=      5-min Rain = 0
KMC5 170317Z 01011KT 04/01 A3014 RMK A01 T00370005  RH  080%=      5-min Rain = 0
KMC5 170318Z 01011KT 04/01 A3014 RMK A01 T00370005  RH  079%=      5-min Rain = 0
KMC5 170319Z 00012KT 04/01 A3014 RMK A01 T00380005  RH  079%=      5-min Rain = 0
KMC5 170320Z 01011KT 04/01 A3014 RMK A01 T00380005  RH  079%=      5-min Rain = 0
KMC5 170321Z 00010KT 04/01 A3014 RMK A01 T00380005  RH  079%=      5-min Rain = 0
KMC5 170322Z 00009KT 04/01 A3014 RMK A01 T00370005  RH  079%=      5-min Rain = 0
KMC5 170323Z 00010KT 04/01 A3015 RMK A01 T00370005  RH  080%=      5-min Rain = 0
KMC5 170324Z 00011KT 04/00 A3015 RMK A01 T00360004  RH  080%=      5-min Rain = 0
KMC5 170325Z 00009KT 04/00 A3015 RMK A01 T00370004  RH  079%=      5-min Rain = 0
KMC5 170326Z 00009KT 04/00 A3015 RMK A01 T00370004  RH  079%=      5-min Rain = 0
KMC5 170327Z 00009KT 04/00 A3015 RMK A01 T00360004  RH  079%=      5-min Rain = 0
KMC5 170328Z 35010KT 04/01 A3015 RMK A01 T00370005  RH  080%=      5-min Rain = 0
KMC5 170329Z 35010KT 04/00 A3015 RMK A01 T00360004  RH  079%=      5-min Rain = 0
KMC5 170330Z 35008KT 04/00 A3015 RMK A01 T00370004  RH  079%=      5-min Rain = 0
KMC5 170331Z 35008KT 04/00 A3016 RMK A01 T00360004  RH  079%=      5-min Rain = 0
KMC5 170332Z 35009KT 04/00 A3016 RMK A01 T00360004  RH  080%=      5-min Rain = 0
KMC5 170333Z 35008KT 04/00 A3016 RMK A01 T00360004  RH  080%=      5-min Rain = 0
KMC5 170334Z 34008KT 04/00 A3016 RMK A01 T00360004  RH  080%=      5-min Rain = 0
KMC5 170335Z 34009KT 04/00 A3016 RMK A01 T00360004  RH  080%=      5-min Rain = 0
KMC5 170336Z 34008KT 04/00 A3016 RMK A01 T00360004  RH  080%=      5-min Rain = 0
KMC5 170337Z 35009KT 04/00 A3016 RMK A01 T00360004  RH  080%=      5-min Rain = 0
KMC5 170338Z 34010KT 04/00 A3016 RMK A01 T00360004  RH  080%=      5-min Rain = 0
KMC5 170339Z 34009KT 04/00 A3016 RMK A01 T00360004  RH  080%=      5-min Rain = 0
KMC5 170340Z 34009KT 04/00 A3016 RMK A01 T00360004  RH  080%=      5-min Rain = 0
KMC5 170341Z 33009KT 04/01 A3016 RMK A01 T00360005  RH  080%=      5-min Rain = 0
KMC5 170342Z 34010KT 04/00 A3016 RMK A01 T00360004  RH  080%=      5-min Rain = 0
KMC5 170343Z 34010KT 04/00 A3016 RMK A01 T00360004  RH  080%=      5-min Rain = 0
KMC5 170344Z 33010KT 04/00 A3016 RMK A01 T00360004  RH  080%=      5-min Rain = 0
KMC5 170345Z 33010KT 04/00 A3016 RMK A01 T00360004  RH  080%=      5-min Rain = 0
KMC5 170346Z 33009KT 04/00 A3016 RMK A01 T00360004  RH  079%=      5-min Rain = 0
KMC5 170347Z 33010KT 04/00 A3016 RMK A01 T00360004  RH  080%=      5-min Rain = 0
KMC5 170348Z 33010KT 04/00 A3016 RMK A01 T00360004  RH  080%=      5-min Rain = 0
KMC5 170349Z 33010KT 04/00 A3016 RMK A01 T00360004  RH  079%=      5-min Rain = 0
KMC5 170350Z 33011KT 04/00 A3016 RMK A01 T00350003  RH  080%=      5-min Rain = 0
KMC5 170351Z 34011KT 04/00 A3016 RMK A01 T00360003  RH  080%=      5-min Rain = 0
KMC5 170352Z 34011KT 04/00 A3016 RMK A01 T00360003  RH  079%=      5-min Rain = 0
KMC5 170353Z 34011KT 04/00 A3016 RMK A01 T00370003  RH  079%=      5-min Rain = 0
KMC5 170354Z 34011KT 04/00 A3016 RMK A01 T00370003  RH  079%=      5-min Rain = 0
KMC5 170355Z 34012KT 04/00 A3016 RMK A01 T00370003  RH  078%=      5-min Rain = 0
KMC5 170356Z 34013KT 04/00 A3016 RMK A01 T00370003  RH  078%=      5-min Rain = 0
KMC5 170357Z 34012KT 04/00 A3016 RMK A01 T00370003  RH  078%=      5-min Rain = 0
KMC5 170358Z 34012KT 04/00 A3016 RMK A01 T00370003  RH  078%=      5-min Rain = 0
KMC5 170359Z 34012KT 04/00 A3016 RMK A01 T00370003  RH  078%=      5-min Rain = 0
KMC5 170400Z 33011KT 04/00 A3016 RMK A01 T00370003  RH  078%=      5-min Rain = 0
KMC5 170401Z 34011KT 04/00 A3016 RMK A01 T00370003  RH  078%=      5-min Rain = 0
KMC5 170402Z 33010KT 04/00 A3016 RMK A01 T00360003  RH  079%=      5-min Rain = 0
KMC5 170403Z 34011KT 04/00 A3016 RMK A01 T00360003  RH  079%=      5-min Rain = 0
KMC5 170404Z 34010KT 04/00 A3016 RMK A01 T00360003  RH  079%=      5-min Rain = 0
KMC5 170405Z 34011KT 04/00 A3016 RMK A01 T00350003  RH  079%=      5-min Rain = 0
KMC5 170406Z 34011KT 04/00 A3016 RMK A01 T00350003  RH  080%=      5-min Rain = 0
KMC5 170407Z 34010KT 04/00 A3016 RMK A01 T00350003  RH  080%=      5-min Rain = 0
KMC5 170408Z 33010KT 04/00 A3016 RMK A01 T00350003  RH  080%=      5-min Rain = 0
KMC5 170409Z 33010KT 04/00 A3016 RMK A01 T00350003  RH  080%=      5-min Rain = 0
KMC5 170410Z 33010KT 04/00 A3016 RMK A01 T00350003  RH  080%=      5-min Rain = 0
KMC5 170411Z 33010KT 04/00 A3016 RMK A01 T00350003  RH  079%=      5-min Rain = 0
KMC5 170412Z 33011KT 04/00 A3016 RMK A01 T00350002  RH  079%=      5-min Rain = 0
KMC5 170413Z 33011KT 04/00 A3016 RMK A01 T00350002  RH  079%=      5-min Rain = 0
KMC5 170414Z 33011KT 04/00 A3016 RMK A01 T00360002  RH  079%=      5-min Rain = 0
KMC5 170415Z 33011KT 04/00 A3016 RMK A01 T00360002  RH  078%=      5-min Rain = 0
KMC5 170416Z 33011KT 04/00 A3016 RMK A01 T00360002  RH  078%=      5-min Rain = 0
KMC5 170417Z 33011KT 04/00 A3016 RMK A01 T00370001  RH  078%=      5-min Rain = 0
KMC5 170418Z 33010KT 04/00 A3017 RMK A01 T00370001  RH  077%=      5-min Rain = 0
KMC5 170419Z 33011KT 04/00 A3017 RMK A01 T00370001  RH  077%=      5-min Rain = 0
KMC5 170420Z 33011KT 04/00 A3017 RMK A01 T00370001  RH  077%=      5-min Rain = 0
KMC5 170421Z 33010KT 04/00 A3017 RMK A01 T00380000  RH  077%=      5-min Rain = 0
KMC5 170422Z 33010KT 04/00 A3017 RMK A01 T00380001  RH  077%=      5-min Rain = 0
KMC5 170423Z 33009KT 04/00 A3017 RMK A01 T00370000  RH  077%=      5-min Rain = 0
KMC5 170424Z 33009KT 04/00 A3017 RMK A01 T00370001  RH  077%=      5-min Rain = 0
KMC5 170425Z 33010KT 04/00 A3017 RMK A01 T00370000  RH  077%=      5-min Rain = 0
KMC5 170426Z 33009KT 04/00 A3017 RMK A01 T00370000  RH  077%=      5-min Rain = 0
KMC5 170427Z 32009KT 04/00 A3017 RMK A01 T00370000  RH  077%=      5-min Rain = 0
KMC5 170428Z 33010KT 04/00 A3017 RMK A01 T003700-0  RH  077%=      5-min Rain = 0
KMC5 170429Z 33010KT 04/M00 A3017 RMK A01 T00361001  RH  077%=      5-min Rain = 0
KMC5 170430Z 33009KT 04/M00 A3017 RMK A01 T00371001  RH  077%=      5-min Rain = 0
KMC5 170431Z 33011KT 04/M00 A3017 RMK A01 T00371001  RH  076%=      5-min Rain = 0
KMC5 170432Z 33010KT 04/M00 A3017 RMK A01 T00371001  RH  076%=      5-min Rain = 0
KMC5 170433Z 33009KT 04/M00 A3017 RMK A01 T00371002  RH  076%=      5-min Rain = 0
KMC5 170434Z 33010KT 04/M00 A3016 RMK A01 T00371002  RH  076%=      5-min Rain = 0
KMC5 170435Z 33009KT 04/M00 A3016 RMK A01 T00371002  RH  076%=      5-min Rain = 0
KMC5 170436Z 33010KT 04/M00 A3016 RMK A01 T00371002  RH  076%=      5-min Rain = 0
KMC5 170437Z 34010KT 04/M00 A3016 RMK A01 T00371002  RH  076%=      5-min Rain = 0
KMC5 170438Z 34009KT 04/M00 A3016 RMK A01 T00371002  RH  076%=      5-min Rain = 0
KMC5 170439Z 34010KT 04/M00 A3016 RMK A01 T00371002  RH  076%=      5-min Rain = 0
KMC5 170440Z 34010KT 04/M00 A3016 RMK A01 T00361002  RH  076%=      5-min Rain = 0
KMC5 170441Z 33010KT 04/M00 A3016 RMK A01 T00361002  RH  076%=      5-min Rain = 0
KMC5 170442Z 33010KT 04/M00 A3016 RMK A01 T00361002  RH  076%=      5-min Rain = 0
KMC5 170443Z 33011KT 04/M00 A3016 RMK A01 T00361003  RH  076%=      5-min Rain = 0
KMC5 170444Z 34010KT 04/M00 A3016 RMK A01 T00361003  RH  076%=      5-min Rain = 0
KMC5 170445Z 34011KT 04/M00 A3016 RMK A01 T00371002  RH  076%=      5-min Rain = 0
KMC5 170446Z 34011KT 04/M00 A3016 RMK A01 T00371002  RH  076%=      5-min Rain = 0
KMC5 170447Z 34010KT 04/M00 A3016 RMK A01 T00361003  RH  076%=      5-min Rain = 0
KMC5 170448Z 33010KT 04/M00 A3016 RMK A01 T00361002  RH  076%=      5-min Rain = 0
KMC5 170449Z 34010KT 04/M00 A3016 RMK A01 T00361002  RH  076%=      5-min Rain = 0
KMC5 170450Z 34011KT 04/M00 A3016 RMK A01 T00361003  RH  076%=      5-min Rain = 0
KMC5 170451Z 34011KT 04/M00 A3016 RMK A01 T00361003  RH  076%=      5-min Rain = 0
KMC5 170452Z 34010KT 04/M00 A3016 RMK A01 T00361003  RH  076%=      5-min Rain = 0
KMC5 170453Z 34011KT 04/M00 A3016 RMK A01 T00361003  RH  076%=      5-min Rain = 0
KMC5 170454Z 34010KT 04/M00 A3016 RMK A01 T00361003  RH  076%=      5-min Rain = 0
KMC5 170455Z 33010KT 04/M00 A3016 RMK A01 T00361003  RH  076%=      5-min Rain = 0
KMC5 170456Z 34011KT 04/M00 A3016 RMK A01 T00351003  RH  076%=      5-min Rain = 0
KMC5 170457Z 34012KT 04/M00 A3016 RMK A01 T00351003  RH  076%=      5-min Rain = 0
KMC5 170458Z 34012KT 04/M00 A3016 RMK A01 T00351003  RH  076%=      5-min Rain = 0
KMC5 170459Z 34012KT 04/M00 A3016 RMK A01 T00361003  RH  076%=      5-min Rain = 0

Page generated in 0.0653 seconds.